<?xml version="1.0" encoding="UTF-8" standalone="no" ?>
<gpx xmlns="http://www.topografix.com/GPX/1/1" xmlns:xsi="http://www.w3.org/2001/XMLSchema-instance" xsi:schemaLocation="http://www.topografix.com/GPX/1/1 http://www.topografix.com/GPX/1/1/gpx.xsd" version="1.1" creator="VisuGPX - https://www.visugpx.com">
  <metadata>
    <name>VTT Charance/Gleize</name>
    <desc><![CDATA[Itineraire VTC/VTT Cool par petite route et pistes pour sortie RSPG du 3/10 au départ du pré de la danse à Charance. très jolies vues sur Bayard et le Champsaur]]></desc>
  </metadata>
  <trk>
    <name><![CDATA[ACTIVE LOG 003]]></name>
    <trkseg>
      <trkpt lat="44.5823" lon="6.05927">
        <ele>997.505127</ele>
        <time>2013-09-26T09:38:04Z</time>
      </trkpt>
      <trkpt lat="44.58228" lon="6.05928">
        <ele>1001.3503418</ele>
        <time>2013-09-26T09:38:17Z</time>
      </trkpt>
      <trkpt lat="44.58227" lon="6.05928">
        <ele>1005.1958008</ele>
        <time>2013-09-26T09:38:19Z</time>
      </trkpt>
      <trkpt lat="44.58227" lon="6.05928">
        <ele>1008.5603027</ele>
        <time>2013-09-26T09:38:21Z</time>
      </trkpt>
      <trkpt lat="44.58227" lon="6.05927">
        <ele>1012.4055176</ele>
        <time>2013-09-26T09:38:24Z</time>
      </trkpt>
      <trkpt lat="44.58227" lon="6.05926">
        <ele>1016.2507324</ele>
        <time>2013-09-26T09:38:27Z</time>
      </trkpt>
      <trkpt lat="44.58227" lon="6.05925">
        <ele>1019.6154785</ele>
        <time>2013-09-26T09:38:30Z</time>
      </trkpt>
      <trkpt lat="44.58226" lon="6.05925">
        <ele>1022.4995117</ele>
        <time>2013-09-26T09:38:33Z</time>
      </trkpt>
      <trkpt lat="44.58226" lon="6.05926">
        <ele>1026.3447266</ele>
        <time>2013-09-26T09:38:37Z</time>
      </trkpt>
      <trkpt lat="44.58226" lon="6.05926">
        <ele>1029.7092285</ele>
        <time>2013-09-26T09:38:41Z</time>
      </trkpt>
      <trkpt lat="44.58227" lon="6.05925">
        <ele>1033.0737305</ele>
        <time>2013-09-26T09:38:46Z</time>
      </trkpt>
      <trkpt lat="44.58227" lon="6.05926">
        <ele>1034.5158691</ele>
        <time>2013-09-26T09:38:48Z</time>
      </trkpt>
      <trkpt lat="44.58234" lon="6.05921">
        <ele>1037.8806152</ele>
        <time>2013-09-26T09:38:54Z</time>
      </trkpt>
      <trkpt lat="44.5824" lon="6.05921">
        <ele>1040.2839355</ele>
        <time>2013-09-26T09:38:58Z</time>
      </trkpt>
      <trkpt lat="44.58243" lon="6.05923">
        <ele>1041.2451172</ele>
        <time>2013-09-26T09:39:00Z</time>
      </trkpt>
      <trkpt lat="44.58244" lon="6.05926">
        <ele>1042.206543</ele>
        <time>2013-09-26T09:39:02Z</time>
      </trkpt>
      <trkpt lat="44.58246" lon="6.05937">
        <ele>1044.6096191</ele>
        <time>2013-09-26T09:39:06Z</time>
      </trkpt>
      <trkpt lat="44.58244" lon="6.05945">
        <ele>1045.5710449</ele>
        <time>2013-09-26T09:39:09Z</time>
      </trkpt>
      <trkpt lat="44.58248" lon="6.05955">
        <ele>1047.4936523</ele>
        <time>2013-09-26T09:39:13Z</time>
      </trkpt>
      <trkpt lat="44.58263" lon="6.05958">
        <ele>1050.8581543</ele>
        <time>2013-09-26T09:39:21Z</time>
      </trkpt>
      <trkpt lat="44.58268" lon="6.0596">
        <ele>1052.300293</ele>
        <time>2013-09-26T09:39:24Z</time>
      </trkpt>
      <trkpt lat="44.58298" lon="6.05963">
        <ele>1054.7036133</ele>
        <time>2013-09-26T09:39:41Z</time>
      </trkpt>
      <trkpt lat="44.58318" lon="6.05968">
        <ele>1057.1069336</ele>
        <time>2013-09-26T09:39:55Z</time>
      </trkpt>
      <trkpt lat="44.58347" lon="6.05969">
        <ele>1059.9907227</ele>
        <time>2013-09-26T09:40:16Z</time>
      </trkpt>
      <trkpt lat="44.58369" lon="6.05969">
        <ele>1062.8747559</ele>
        <time>2013-09-26T09:40:33Z</time>
      </trkpt>
      <trkpt lat="44.58392" lon="6.05968">
        <ele>1065.7587891</ele>
        <time>2013-09-26T09:40:52Z</time>
      </trkpt>
      <trkpt lat="44.58407" lon="6.05966">
        <ele>1067.2006836</ele>
        <time>2013-09-26T09:41:03Z</time>
      </trkpt>
      <trkpt lat="44.58428" lon="6.05969">
        <ele>1070.5654297</ele>
        <time>2013-09-26T09:41:21Z</time>
      </trkpt>
      <trkpt lat="44.58442" lon="6.05972">
        <ele>1072.4880371</ele>
        <time>2013-09-26T09:41:34Z</time>
      </trkpt>
      <trkpt lat="44.58465" lon="6.05979">
        <ele>1075.3718262</ele>
        <time>2013-09-26T09:41:53Z</time>
      </trkpt>
      <trkpt lat="44.58472" lon="6.05983">
        <ele>1076.333252</ele>
        <time>2013-09-26T09:42:00Z</time>
      </trkpt>
      <trkpt lat="44.58486" lon="6.05993">
        <ele>1078.2558594</ele>
        <time>2013-09-26T09:42:13Z</time>
      </trkpt>
      <trkpt lat="44.58502" lon="6.06015">
        <ele>1081.6203613</ele>
        <time>2013-09-26T09:42:35Z</time>
      </trkpt>
      <trkpt lat="44.58515" lon="6.06031">
        <ele>1083.5429688</ele>
        <time>2013-09-26T09:42:51Z</time>
      </trkpt>
      <trkpt lat="44.58519" lon="6.06039">
        <ele>1084.5046387</ele>
        <time>2013-09-26T09:42:57Z</time>
      </trkpt>
      <trkpt lat="44.58534" lon="6.06068">
        <ele>1087.3884277</ele>
        <time>2013-09-26T09:43:18Z</time>
      </trkpt>
      <trkpt lat="44.58553" lon="6.06104">
        <ele>1088.8305664</ele>
        <time>2013-09-26T09:43:40Z</time>
      </trkpt>
      <trkpt lat="44.58569" lon="6.06144">
        <ele>1090.2724609</ele>
        <time>2013-09-26T09:44:02Z</time>
      </trkpt>
      <trkpt lat="44.58574" lon="6.06153">
        <ele>1086.9077148</ele>
        <time>2013-09-26T09:44:07Z</time>
      </trkpt>
      <trkpt lat="44.58575" lon="6.06155">
        <ele>1086.9077148</ele>
        <time>2013-09-26T09:44:08Z</time>
      </trkpt>
      <trkpt lat="44.58586" lon="6.06173">
        <ele>1083.5429688</ele>
        <time>2013-09-26T09:44:18Z</time>
      </trkpt>
      <trkpt lat="44.58621" lon="6.06209">
        <ele>1083.0622559</ele>
        <time>2013-09-26T09:44:44Z</time>
      </trkpt>
      <trkpt lat="44.58659" lon="6.06218">
        <ele>1085.4658203</ele>
        <time>2013-09-26T09:45:07Z</time>
      </trkpt>
      <trkpt lat="44.5869" lon="6.06228">
        <ele>1087.3884277</ele>
        <time>2013-09-26T09:45:28Z</time>
      </trkpt>
      <trkpt lat="44.58707" lon="6.06244">
        <ele>1089.3110352</ele>
        <time>2013-09-26T09:45:43Z</time>
      </trkpt>
      <trkpt lat="44.58708" lon="6.06255">
        <ele>1090.2724609</ele>
        <time>2013-09-26T09:45:49Z</time>
      </trkpt>
      <trkpt lat="44.58703" lon="6.06308">
        <ele>1092.6757813</ele>
        <time>2013-09-26T09:46:14Z</time>
      </trkpt>
      <trkpt lat="44.58735" lon="6.06334">
        <ele>1095.5595703</ele>
        <time>2013-09-26T09:46:37Z</time>
      </trkpt>
      <trkpt lat="44.58761" lon="6.0635">
        <ele>1097.9628906</ele>
        <time>2013-09-26T09:46:55Z</time>
      </trkpt>
      <trkpt lat="44.58787" lon="6.06366">
        <ele>1101.3276367</ele>
        <time>2013-09-26T09:47:15Z</time>
      </trkpt>
      <trkpt lat="44.58813" lon="6.06374">
        <ele>1104.2116699</ele>
        <time>2013-09-26T09:47:34Z</time>
      </trkpt>
      <trkpt lat="44.58836" lon="6.06381">
        <ele>1107.5761719</ele>
        <time>2013-09-26T09:47:55Z</time>
      </trkpt>
      <trkpt lat="44.58854" lon="6.06395">
        <ele>1110.4599609</ele>
        <time>2013-09-26T09:48:14Z</time>
      </trkpt>
      <trkpt lat="44.58869" lon="6.06412">
        <ele>1113.3439941</ele>
        <time>2013-09-26T09:48:31Z</time>
      </trkpt>
      <trkpt lat="44.58885" lon="6.06435">
        <ele>1116.7087402</ele>
        <time>2013-09-26T09:48:52Z</time>
      </trkpt>
      <trkpt lat="44.58892" lon="6.06445">
        <ele>1118.1506348</ele>
        <time>2013-09-26T09:49:01Z</time>
      </trkpt>
      <trkpt lat="44.58899" lon="6.06448">
        <ele>1118.6313477</ele>
        <time>2013-09-26T09:49:07Z</time>
      </trkpt>
      <trkpt lat="44.58903" lon="6.06443">
        <ele>1118.6313477</ele>
        <time>2013-09-26T09:49:11Z</time>
      </trkpt>
      <trkpt lat="44.58888" lon="6.06401">
        <ele>1121.5151367</ele>
        <time>2013-09-26T09:49:36Z</time>
      </trkpt>
      <trkpt lat="44.58864" lon="6.06357">
        <ele>1122.4765625</ele>
        <time>2013-09-26T09:50:01Z</time>
      </trkpt>
      <trkpt lat="44.58844" lon="6.06318">
        <ele>1123.918457</ele>
        <time>2013-09-26T09:50:20Z</time>
      </trkpt>
      <trkpt lat="44.58839" lon="6.06277">
        <ele>1126.3217773</ele>
        <time>2013-09-26T09:50:41Z</time>
      </trkpt>
      <trkpt lat="44.58838" lon="6.06278">
        <ele>1126.3217773</ele>
        <time>2013-09-26T09:51:10Z</time>
      </trkpt>
      <trkpt lat="44.58841" lon="6.06262">
        <ele>1126.3217773</ele>
        <time>2013-09-26T09:51:17Z</time>
      </trkpt>
      <trkpt lat="44.58839" lon="6.0622">
        <ele>1129.6862793</ele>
        <time>2013-09-26T09:51:35Z</time>
      </trkpt>
      <trkpt lat="44.58834" lon="6.06181">
        <ele>1133.0510254</ele>
        <time>2013-09-26T09:51:54Z</time>
      </trkpt>
      <trkpt lat="44.58834" lon="6.06179">
        <ele>1133.0510254</ele>
        <time>2013-09-26T09:51:55Z</time>
      </trkpt>
      <trkpt lat="44.58826" lon="6.06147">
        <ele>1135.9350586</ele>
        <time>2013-09-26T09:52:12Z</time>
      </trkpt>
      <trkpt lat="44.58821" lon="6.06103">
        <ele>1138.3383789</ele>
        <time>2013-09-26T09:52:31Z</time>
      </trkpt>
      <trkpt lat="44.58788" lon="6.06064">
        <ele>1138.8190918</ele>
        <time>2013-09-26T09:52:50Z</time>
      </trkpt>
      <trkpt lat="44.58781" lon="6.06058">
        <ele>1138.3383789</ele>
        <time>2013-09-26T09:52:52Z</time>
      </trkpt>
      <trkpt lat="44.58751" lon="6.06024">
        <ele>1138.3383789</ele>
        <time>2013-09-26T09:53:01Z</time>
      </trkpt>
      <trkpt lat="44.58735" lon="6.06006">
        <ele>1137.857666</ele>
        <time>2013-09-26T09:53:06Z</time>
      </trkpt>
      <trkpt lat="44.5869" lon="6.05965">
        <ele>1138.8190918</ele>
        <time>2013-09-26T09:53:19Z</time>
      </trkpt>
      <trkpt lat="44.5867" lon="6.05912">
        <ele>1136.4157715</ele>
        <time>2013-09-26T09:53:27Z</time>
      </trkpt>
      <trkpt lat="44.58653" lon="6.0585">
        <ele>1137.857666</ele>
        <time>2013-09-26T09:53:38Z</time>
      </trkpt>
      <trkpt lat="44.58647" lon="6.0582">
        <ele>1141.222168</ele>
        <time>2013-09-26T09:53:53Z</time>
      </trkpt>
      <trkpt lat="44.58647" lon="6.05808">
        <ele>1142.1835938</ele>
        <time>2013-09-26T09:53:59Z</time>
      </trkpt>
      <trkpt lat="44.58647" lon="6.05796">
        <ele>1143.1447754</ele>
        <time>2013-09-26T09:54:06Z</time>
      </trkpt>
      <trkpt lat="44.58653" lon="6.05775">
        <ele>1146.5095215</ele>
        <time>2013-09-26T09:54:19Z</time>
      </trkpt>
      <trkpt lat="44.58658" lon="6.05772">
        <ele>1148.4321289</ele>
        <time>2013-09-26T09:54:27Z</time>
      </trkpt>
      <trkpt lat="44.5868" lon="6.05781">
        <ele>1151.3161621</ele>
        <time>2013-09-26T09:54:45Z</time>
      </trkpt>
      <trkpt lat="44.58682" lon="6.05783">
        <ele>1152.2773438</ele>
        <time>2013-09-26T09:54:50Z</time>
      </trkpt>
      <trkpt lat="44.58699" lon="6.05815">
        <ele>1155.6420898</ele>
        <time>2013-09-26T09:55:10Z</time>
      </trkpt>
      <trkpt lat="44.58701" lon="6.0582">
        <ele>1156.1225586</ele>
        <time>2013-09-26T09:55:13Z</time>
      </trkpt>
      <trkpt lat="44.58708" lon="6.05851">
        <ele>1159.4873047</ele>
        <time>2013-09-26T09:55:32Z</time>
      </trkpt>
      <trkpt lat="44.58712" lon="6.0589">
        <ele>1162.3710938</ele>
        <time>2013-09-26T09:55:55Z</time>
      </trkpt>
      <trkpt lat="44.58738" lon="6.05909">
        <ele>1164.7746582</ele>
        <time>2013-09-26T09:56:17Z</time>
      </trkpt>
      <trkpt lat="44.58772" lon="6.05907">
        <ele>1166.2165527</ele>
        <time>2013-09-26T09:56:37Z</time>
      </trkpt>
      <trkpt lat="44.58799" lon="6.05912">
        <ele>1168.619873</ele>
        <time>2013-09-26T09:56:58Z</time>
      </trkpt>
      <trkpt lat="44.58818" lon="6.05913">
        <ele>1170.5424805</ele>
        <time>2013-09-26T09:57:13Z</time>
      </trkpt>
      <trkpt lat="44.58827" lon="6.05914">
        <ele>1171.0231934</ele>
        <time>2013-09-26T09:57:20Z</time>
      </trkpt>
      <trkpt lat="44.58833" lon="6.05916">
        <ele>1171.5036621</ele>
        <time>2013-09-26T09:57:26Z</time>
      </trkpt>
      <trkpt lat="44.58847" lon="6.05927">
        <ele>1175.348877</ele>
        <time>2013-09-26T09:57:46Z</time>
      </trkpt>
      <trkpt lat="44.58862" lon="6.05956">
        <ele>1178.2329102</ele>
        <time>2013-09-26T09:58:04Z</time>
      </trkpt>
      <trkpt lat="44.58862" lon="6.05956">
        <ele>1180.1557617</ele>
        <time>2013-09-26T09:58:11Z</time>
      </trkpt>
      <trkpt lat="44.58882" lon="6.05998">
        <ele>1183.5202637</ele>
        <time>2013-09-26T09:58:35Z</time>
      </trkpt>
      <trkpt lat="44.58902" lon="6.06014">
        <ele>1185.4428711</ele>
        <time>2013-09-26T09:58:52Z</time>
      </trkpt>
      <trkpt lat="44.58931" lon="6.06038">
        <ele>1188.3269043</ele>
        <time>2013-09-26T09:59:18Z</time>
      </trkpt>
      <trkpt lat="44.58958" lon="6.06061">
        <ele>1190.7299805</ele>
        <time>2013-09-26T09:59:41Z</time>
      </trkpt>
      <trkpt lat="44.58986" lon="6.06083">
        <ele>1194.0947266</ele>
        <time>2013-09-26T10:00:05Z</time>
      </trkpt>
      <trkpt lat="44.59015" lon="6.06102">
        <ele>1196.9787598</ele>
        <time>2013-09-26T10:00:29Z</time>
      </trkpt>
      <trkpt lat="44.59036" lon="6.06115">
        <ele>1200.3435059</ele>
        <time>2013-09-26T10:00:48Z</time>
      </trkpt>
      <trkpt lat="44.59037" lon="6.06115">
        <ele>1200.3435059</ele>
        <time>2013-09-26T10:00:49Z</time>
      </trkpt>
      <trkpt lat="44.59045" lon="6.0612">
        <ele>1201.3046875</ele>
        <time>2013-09-26T10:00:56Z</time>
      </trkpt>
      <trkpt lat="44.59047" lon="6.06121">
        <ele>1201.7854004</ele>
        <time>2013-09-26T10:00:59Z</time>
      </trkpt>
      <trkpt lat="44.59071" lon="6.06135">
        <ele>1204.1887207</ele>
        <time>2013-09-26T10:01:17Z</time>
      </trkpt>
      <trkpt lat="44.59105" lon="6.06158">
        <ele>1205.6306152</ele>
        <time>2013-09-26T10:01:42Z</time>
      </trkpt>
      <trkpt lat="44.59147" lon="6.062">
        <ele>1204.6691895</ele>
        <time>2013-09-26T10:01:59Z</time>
      </trkpt>
      <trkpt lat="44.59194" lon="6.06241">
        <ele>1206.111084</ele>
        <time>2013-09-26T10:02:20Z</time>
      </trkpt>
      <trkpt lat="44.59242" lon="6.06274">
        <ele>1205.6306152</ele>
        <time>2013-09-26T10:02:39Z</time>
      </trkpt>
      <trkpt lat="44.59282" lon="6.06274">
        <ele>1206.5917969</ele>
        <time>2013-09-26T10:02:56Z</time>
      </trkpt>
      <trkpt lat="44.59306" lon="6.06289">
        <ele>1207.5532227</ele>
        <time>2013-09-26T10:03:13Z</time>
      </trkpt>
      <trkpt lat="44.59329" lon="6.06299">
        <ele>1208.9951172</ele>
        <time>2013-09-26T10:03:31Z</time>
      </trkpt>
      <trkpt lat="44.59324" lon="6.06271">
        <ele>1210.4370117</ele>
        <time>2013-09-26T10:03:44Z</time>
      </trkpt>
      <trkpt lat="44.59318" lon="6.06252">
        <ele>1211.8791504</ele>
        <time>2013-09-26T10:03:54Z</time>
      </trkpt>
      <trkpt lat="44.59302" lon="6.06208">
        <ele>1215.2438965</ele>
        <time>2013-09-26T10:04:18Z</time>
      </trkpt>
      <trkpt lat="44.59289" lon="6.06169">
        <ele>1218.6083984</ele>
        <time>2013-09-26T10:04:40Z</time>
      </trkpt>
      <trkpt lat="44.59288" lon="6.06167">
        <ele>1218.6083984</ele>
        <time>2013-09-26T10:04:41Z</time>
      </trkpt>
      <trkpt lat="44.59273" lon="6.06125">
        <ele>1221.4921875</ele>
        <time>2013-09-26T10:05:05Z</time>
      </trkpt>
      <trkpt lat="44.59254" lon="6.06098">
        <ele>1224.8569336</ele>
        <time>2013-09-26T10:05:26Z</time>
      </trkpt>
      <trkpt lat="44.5923" lon="6.06085">
        <ele>1227.2602539</ele>
        <time>2013-09-26T10:05:46Z</time>
      </trkpt>
      <trkpt lat="44.59204" lon="6.06059">
        <ele>1230.625</ele>
        <time>2013-09-26T10:06:08Z</time>
      </trkpt>
      <trkpt lat="44.5918" lon="6.06025">
        <ele>1233.5087891</ele>
        <time>2013-09-26T10:06:33Z</time>
      </trkpt>
      <trkpt lat="44.59161" lon="6.05994">
        <ele>1236.3928223</ele>
        <time>2013-09-26T10:06:54Z</time>
      </trkpt>
      <trkpt lat="44.59141" lon="6.05968">
        <ele>1239.2766113</ele>
        <time>2013-09-26T10:07:16Z</time>
      </trkpt>
      <trkpt lat="44.59135" lon="6.05961">
        <ele>1239.7573242</ele>
        <time>2013-09-26T10:07:22Z</time>
      </trkpt>
      <trkpt lat="44.59111" lon="6.05929">
        <ele>1243.1218262</ele>
        <time>2013-09-26T10:07:47Z</time>
      </trkpt>
      <trkpt lat="44.59094" lon="6.0591">
        <ele>1245.0446777</ele>
        <time>2013-09-26T10:08:04Z</time>
      </trkpt>
      <trkpt lat="44.59101" lon="6.05896">
        <ele>1246.0061035</ele>
        <time>2013-09-26T10:08:13Z</time>
      </trkpt>
      <trkpt lat="44.59113" lon="6.05903">
        <ele>1246.9672852</ele>
        <time>2013-09-26T10:08:24Z</time>
      </trkpt>
      <trkpt lat="44.59146" lon="6.05926">
        <ele>1250.3320313</ele>
        <time>2013-09-26T10:08:51Z</time>
      </trkpt>
      <trkpt lat="44.59171" lon="6.05939">
        <ele>1253.2158203</ele>
        <time>2013-09-26T10:09:13Z</time>
      </trkpt>
      <trkpt lat="44.59203" lon="6.05956">
        <ele>1255.6191406</ele>
        <time>2013-09-26T10:09:36Z</time>
      </trkpt>
      <trkpt lat="44.59233" lon="6.05973">
        <ele>1258.5029297</ele>
        <time>2013-09-26T10:10:01Z</time>
      </trkpt>
      <trkpt lat="44.59262" lon="6.05985">
        <ele>1261.387207</ele>
        <time>2013-09-26T10:10:23Z</time>
      </trkpt>
      <trkpt lat="44.59267" lon="6.05986">
        <ele>1261.8679199</ele>
        <time>2013-09-26T10:10:26Z</time>
      </trkpt>
      <trkpt lat="44.59291" lon="6.0598">
        <ele>1264.2709961</ele>
        <time>2013-09-26T10:10:44Z</time>
      </trkpt>
      <trkpt lat="44.59321" lon="6.05972">
        <ele>1266.6743164</ele>
        <time>2013-09-26T10:11:08Z</time>
      </trkpt>
      <trkpt lat="44.59342" lon="6.05969">
        <ele>1268.5969238</ele>
        <time>2013-09-26T10:11:26Z</time>
      </trkpt>
      <trkpt lat="44.59368" lon="6.0597">
        <ele>1270.5195313</ele>
        <time>2013-09-26T10:11:46Z</time>
      </trkpt>
      <trkpt lat="44.59382" lon="6.05973">
        <ele>1271.9614258</ele>
        <time>2013-09-26T10:11:57Z</time>
      </trkpt>
      <trkpt lat="44.59387" lon="6.05967">
        <ele>1272.4421387</ele>
        <time>2013-09-26T10:12:03Z</time>
      </trkpt>
      <trkpt lat="44.59382" lon="6.05954">
        <ele>1273.8840332</ele>
        <time>2013-09-26T10:12:12Z</time>
      </trkpt>
      <trkpt lat="44.59348" lon="6.05946">
        <ele>1277.2490234</ele>
        <time>2013-09-26T10:12:38Z</time>
      </trkpt>
      <trkpt lat="44.59321" lon="6.05936">
        <ele>1279.1713867</ele>
        <time>2013-09-26T10:12:58Z</time>
      </trkpt>
      <trkpt lat="44.593" lon="6.05925">
        <ele>1281.0942383</ele>
        <time>2013-09-26T10:13:15Z</time>
      </trkpt>
      <trkpt lat="44.59271" lon="6.05908">
        <ele>1284.4587402</ele>
        <time>2013-09-26T10:13:41Z</time>
      </trkpt>
      <trkpt lat="44.59247" lon="6.05896">
        <ele>1285.9006348</ele>
        <time>2013-09-26T10:13:58Z</time>
      </trkpt>
      <trkpt lat="44.5925" lon="6.05881">
        <ele>1286.3813477</ele>
        <time>2013-09-26T10:14:03Z</time>
      </trkpt>
      <trkpt lat="44.59255" lon="6.05879">
        <ele>1287.3425293</ele>
        <time>2013-09-26T10:14:07Z</time>
      </trkpt>
      <trkpt lat="44.5927" lon="6.0588">
        <ele>1289.7458496</ele>
        <time>2013-09-26T10:14:21Z</time>
      </trkpt>
      <trkpt lat="44.59287" lon="6.05879">
        <ele>1290.7070313</ele>
        <time>2013-09-26T10:14:32Z</time>
      </trkpt>
      <trkpt lat="44.5929" lon="6.05879">
        <ele>1290.7070313</ele>
        <time>2013-09-26T10:14:35Z</time>
      </trkpt>
      <trkpt lat="44.59296" lon="6.05879">
        <ele>1291.668457</ele>
        <time>2013-09-26T10:14:39Z</time>
      </trkpt>
      <trkpt lat="44.59299" lon="6.05879">
        <ele>1291.668457</ele>
        <time>2013-09-26T10:14:41Z</time>
      </trkpt>
      <trkpt lat="44.59318" lon="6.05879">
        <ele>1293.1105957</ele>
        <time>2013-09-26T10:14:54Z</time>
      </trkpt>
      <trkpt lat="44.59342" lon="6.05879">
        <ele>1295.0332031</ele>
        <time>2013-09-26T10:15:12Z</time>
      </trkpt>
      <trkpt lat="44.59375" lon="6.0589">
        <ele>1297.4365234</ele>
        <time>2013-09-26T10:15:35Z</time>
      </trkpt>
      <trkpt lat="44.59384" lon="6.05894">
        <ele>1298.3977051</ele>
        <time>2013-09-26T10:15:42Z</time>
      </trkpt>
      <trkpt lat="44.59392" lon="6.05898">
        <ele>1298.878418</ele>
        <time>2013-09-26T10:15:48Z</time>
      </trkpt>
      <trkpt lat="44.59418" lon="6.05909">
        <ele>1300.8010254</ele>
        <time>2013-09-26T10:16:07Z</time>
      </trkpt>
      <trkpt lat="44.59446" lon="6.05921">
        <ele>1304.1657715</ele>
        <time>2013-09-26T10:16:29Z</time>
      </trkpt>
      <trkpt lat="44.59477" lon="6.05943">
        <ele>1306.5688477</ele>
        <time>2013-09-26T10:16:55Z</time>
      </trkpt>
      <trkpt lat="44.59504" lon="6.05965">
        <ele>1309.453125</ele>
        <time>2013-09-26T10:17:18Z</time>
      </trkpt>
      <trkpt lat="44.59538" lon="6.05983">
        <ele>1311.8564453</ele>
        <time>2013-09-26T10:17:44Z</time>
      </trkpt>
      <trkpt lat="44.59561" lon="6.05999">
        <ele>1314.2595215</ele>
        <time>2013-09-26T10:18:03Z</time>
      </trkpt>
      <trkpt lat="44.59588" lon="6.0601">
        <ele>1317.1435547</ele>
        <time>2013-09-26T10:18:24Z</time>
      </trkpt>
      <trkpt lat="44.59619" lon="6.06003">
        <ele>1319.0661621</ele>
        <time>2013-09-26T10:18:45Z</time>
      </trkpt>
      <trkpt lat="44.59649" lon="6.06001">
        <ele>1321.4692383</ele>
        <time>2013-09-26T10:19:07Z</time>
      </trkpt>
      <trkpt lat="44.59673" lon="6.06004">
        <ele>1323.8725586</ele>
        <time>2013-09-26T10:19:26Z</time>
      </trkpt>
      <trkpt lat="44.597" lon="6.06011">
        <ele>1326.276123</ele>
        <time>2013-09-26T10:19:46Z</time>
      </trkpt>
      <trkpt lat="44.59707" lon="6.06013">
        <ele>1327.2375488</ele>
        <time>2013-09-26T10:19:52Z</time>
      </trkpt>
      <trkpt lat="44.59713" lon="6.06016">
        <ele>1327.2375488</ele>
        <time>2013-09-26T10:19:57Z</time>
      </trkpt>
      <trkpt lat="44.59717" lon="6.06019">
        <ele>1327.7180176</ele>
        <time>2013-09-26T10:20:00Z</time>
      </trkpt>
      <trkpt lat="44.59728" lon="6.06029">
        <ele>1328.1987305</ele>
        <time>2013-09-26T10:20:10Z</time>
      </trkpt>
      <trkpt lat="44.59752" lon="6.06055">
        <ele>1329.1599121</ele>
        <time>2013-09-26T10:20:31Z</time>
      </trkpt>
      <trkpt lat="44.59754" lon="6.06058">
        <ele>1329.640625</ele>
        <time>2013-09-26T10:20:33Z</time>
      </trkpt>
      <trkpt lat="44.59761" lon="6.06073">
        <ele>1330.1213379</ele>
        <time>2013-09-26T10:20:41Z</time>
      </trkpt>
      <trkpt lat="44.59773" lon="6.06111">
        <ele>1331.0827637</ele>
        <time>2013-09-26T10:20:57Z</time>
      </trkpt>
      <trkpt lat="44.59779" lon="6.06128">
        <ele>1331.5632324</ele>
        <time>2013-09-26T10:21:06Z</time>
      </trkpt>
      <trkpt lat="44.59787" lon="6.06119">
        <ele>1333.4858398</ele>
        <time>2013-09-26T10:21:15Z</time>
      </trkpt>
      <trkpt lat="44.59772" lon="6.06077">
        <ele>1335.8891602</ele>
        <time>2013-09-26T10:21:36Z</time>
      </trkpt>
      <trkpt lat="44.59764" lon="6.06048">
        <ele>1337.3310547</ele>
        <time>2013-09-26T10:21:50Z</time>
      </trkpt>
      <trkpt lat="44.5976" lon="6.06036">
        <ele>1338.2924805</ele>
        <time>2013-09-26T10:21:57Z</time>
      </trkpt>
      <trkpt lat="44.59757" lon="6.06029">
        <ele>1338.7731934</ele>
        <time>2013-09-26T10:22:01Z</time>
      </trkpt>
      <trkpt lat="44.59753" lon="6.06022">
        <ele>1338.7731934</ele>
        <time>2013-09-26T10:22:06Z</time>
      </trkpt>
      <trkpt lat="44.59725" lon="6.05984">
        <ele>1341.6572266</ele>
        <time>2013-09-26T10:22:32Z</time>
      </trkpt>
      <trkpt lat="44.59702" lon="6.05957">
        <ele>1345.0217285</ele>
        <time>2013-09-26T10:22:53Z</time>
      </trkpt>
      <trkpt lat="44.59689" lon="6.05935">
        <ele>1348.3862305</ele>
        <time>2013-09-26T10:23:12Z</time>
      </trkpt>
      <trkpt lat="44.59674" lon="6.05903">
        <ele>1351.2702637</ele>
        <time>2013-09-26T10:23:32Z</time>
      </trkpt>
      <trkpt lat="44.59663" lon="6.05862">
        <ele>1354.6347656</ele>
        <time>2013-09-26T10:23:55Z</time>
      </trkpt>
      <trkpt lat="44.59659" lon="6.0585">
        <ele>1354.1542969</ele>
        <time>2013-09-26T10:24:11Z</time>
      </trkpt>
      <trkpt lat="44.59659" lon="6.0585">
        <ele>1352.7121582</ele>
        <time>2013-09-26T10:24:35Z</time>
      </trkpt>
      <trkpt lat="44.59659" lon="6.0585">
        <ele>1354.6347656</ele>
        <time>2013-09-26T10:27:02Z</time>
      </trkpt>
      <trkpt lat="44.59659" lon="6.0585">
        <ele>1355.5961914</ele>
        <time>2013-09-26T10:31:04Z</time>
      </trkpt>
      <trkpt lat="44.59661" lon="6.05857">
        <ele>1356.0769043</ele>
        <time>2013-09-26T10:31:07Z</time>
      </trkpt>
      <trkpt lat="44.59659" lon="6.0585">
        <ele>1356.5576172</ele>
        <time>2013-09-26T10:31:12Z</time>
      </trkpt>
      <trkpt lat="44.59658" lon="6.05848">
        <ele>1356.5576172</ele>
        <time>2013-09-26T10:31:14Z</time>
      </trkpt>
      <trkpt lat="44.59646" lon="6.05824">
        <ele>1358.9609375</ele>
        <time>2013-09-26T10:31:32Z</time>
      </trkpt>
      <trkpt lat="44.59641" lon="6.05811">
        <ele>1361.3642578</ele>
        <time>2013-09-26T10:31:43Z</time>
      </trkpt>
      <trkpt lat="44.59641" lon="6.05811">
        <ele>1364.7287598</ele>
        <time>2013-09-26T10:32:02Z</time>
      </trkpt>
      <trkpt lat="44.59641" lon="6.05811">
        <ele>1366.6513672</ele>
        <time>2013-09-26T10:32:15Z</time>
      </trkpt>
      <trkpt lat="44.59641" lon="6.05811">
        <ele>1367.6125488</ele>
        <time>2013-09-26T10:32:18Z</time>
      </trkpt>
      <trkpt lat="44.59641" lon="6.05811">
        <ele>1369.0546875</ele>
        <time>2013-09-26T10:32:26Z</time>
      </trkpt>
      <trkpt lat="44.59633" lon="6.05744">
        <ele>1370.0158691</ele>
        <time>2013-09-26T10:32:32Z</time>
      </trkpt>
      <trkpt lat="44.59636" lon="6.05746">
        <ele>1372.4194336</ele>
        <time>2013-09-26T10:32:50Z</time>
      </trkpt>
      <trkpt lat="44.59636" lon="6.05746">
        <ele>1374.342041</ele>
        <time>2013-09-26T10:33:02Z</time>
      </trkpt>
      <trkpt lat="44.59665" lon="6.05789">
        <ele>1375.7839355</ele>
        <time>2013-09-26T10:33:13Z</time>
      </trkpt>
      <trkpt lat="44.59682" lon="6.05803">
        <ele>1376.7453613</ele>
        <time>2013-09-26T10:33:29Z</time>
      </trkpt>
      <trkpt lat="44.59707" lon="6.0581">
        <ele>1378.6679688</ele>
        <time>2013-09-26T10:33:46Z</time>
      </trkpt>
      <trkpt lat="44.59729" lon="6.05814">
        <ele>1379.6291504</ele>
        <time>2013-09-26T10:34:02Z</time>
      </trkpt>
      <trkpt lat="44.59754" lon="6.05823">
        <ele>1380.5905762</ele>
        <time>2013-09-26T10:34:19Z</time>
      </trkpt>
      <trkpt lat="44.59789" lon="6.05855">
        <ele>1380.5905762</ele>
        <time>2013-09-26T10:34:38Z</time>
      </trkpt>
      <trkpt lat="44.59844" lon="6.0589">
        <ele>1379.1484375</ele>
        <time>2013-09-26T10:34:51Z</time>
      </trkpt>
      <trkpt lat="44.59863" lon="6.05909">
        <ele>1381.0712891</ele>
        <time>2013-09-26T10:35:02Z</time>
      </trkpt>
      <trkpt lat="44.59885" lon="6.05938">
        <ele>1383.9550781</ele>
        <time>2013-09-26T10:35:20Z</time>
      </trkpt>
      <trkpt lat="44.59903" lon="6.0597">
        <ele>1386.8388672</ele>
        <time>2013-09-26T10:35:37Z</time>
      </trkpt>
      <trkpt lat="44.59925" lon="6.06008">
        <ele>1390.2038574</ele>
        <time>2013-09-26T10:35:57Z</time>
      </trkpt>
      <trkpt lat="44.59946" lon="6.06045">
        <ele>1392.6071777</ele>
        <time>2013-09-26T10:36:17Z</time>
      </trkpt>
      <trkpt lat="44.59976" lon="6.0608">
        <ele>1394.529541</ele>
        <time>2013-09-26T10:36:38Z</time>
      </trkpt>
      <trkpt lat="44.60019" lon="6.0611">
        <ele>1395.0102539</ele>
        <time>2013-09-26T10:36:58Z</time>
      </trkpt>
      <trkpt lat="44.60068" lon="6.06106">
        <ele>1393.0876465</ele>
        <time>2013-09-26T10:37:09Z</time>
      </trkpt>
      <trkpt lat="44.60098" lon="6.06112">
        <ele>1393.0876465</ele>
        <time>2013-09-26T10:37:19Z</time>
      </trkpt>
      <trkpt lat="44.60155" lon="6.0615">
        <ele>1391.645752</ele>
        <time>2013-09-26T10:37:33Z</time>
      </trkpt>
      <trkpt lat="44.60186" lon="6.06166">
        <ele>1391.645752</ele>
        <time>2013-09-26T10:37:46Z</time>
      </trkpt>
      <trkpt lat="44.60193" lon="6.06154">
        <ele>1391.645752</ele>
        <time>2013-09-26T10:37:49Z</time>
      </trkpt>
      <trkpt lat="44.60216" lon="6.06158">
        <ele>1394.529541</ele>
        <time>2013-09-26T10:38:09Z</time>
      </trkpt>
      <trkpt lat="44.60226" lon="6.06157">
        <ele>1395.0102539</ele>
        <time>2013-09-26T10:38:14Z</time>
      </trkpt>
      <trkpt lat="44.60254" lon="6.06153">
        <ele>1396.4523926</ele>
        <time>2013-09-26T10:38:35Z</time>
      </trkpt>
      <trkpt lat="44.60262" lon="6.06152">
        <ele>1398.8554688</ele>
        <time>2013-09-26T10:38:49Z</time>
      </trkpt>
      <trkpt lat="44.60294" lon="6.06156">
        <ele>1402.2199707</ele>
        <time>2013-09-26T10:39:06Z</time>
      </trkpt>
      <trkpt lat="44.60309" lon="6.06161">
        <ele>1405.104248</ele>
        <time>2013-09-26T10:39:23Z</time>
      </trkpt>
      <trkpt lat="44.60327" lon="6.06171">
        <ele>1407.9882813</ele>
        <time>2013-09-26T10:39:38Z</time>
      </trkpt>
      <trkpt lat="44.60338" lon="6.06179">
        <ele>1411.3527832</ele>
        <time>2013-09-26T10:39:55Z</time>
      </trkpt>
      <trkpt lat="44.60361" lon="6.06191">
        <ele>1414.2365723</ele>
        <time>2013-09-26T10:40:12Z</time>
      </trkpt>
      <trkpt lat="44.60375" lon="6.06192">
        <ele>1416.1591797</ele>
        <time>2013-09-26T10:40:23Z</time>
      </trkpt>
      <trkpt lat="44.60386" lon="6.0619">
        <ele>1419.5239258</ele>
        <time>2013-09-26T10:40:42Z</time>
      </trkpt>
      <trkpt lat="44.60413" lon="6.06182">
        <ele>1422.8886719</ele>
        <time>2013-09-26T10:41:01Z</time>
      </trkpt>
      <trkpt lat="44.60434" lon="6.06183">
        <ele>1425.291748</ele>
        <time>2013-09-26T10:41:20Z</time>
      </trkpt>
      <trkpt lat="44.60452" lon="6.06186">
        <ele>1427.6950684</ele>
        <time>2013-09-26T10:41:40Z</time>
      </trkpt>
      <trkpt lat="44.60474" lon="6.06177">
        <ele>1431.0598145</ele>
        <time>2013-09-26T10:41:57Z</time>
      </trkpt>
      <trkpt lat="44.60474" lon="6.06177">
        <ele>1431.5402832</ele>
        <time>2013-09-26T10:42:08Z</time>
      </trkpt>
      <trkpt lat="44.60474" lon="6.06177">
        <ele>1432.0209961</ele>
        <time>2013-09-26T10:42:21Z</time>
      </trkpt>
      <trkpt lat="44.60474" lon="6.06177">
        <ele>1432.0209961</ele>
        <time>2013-09-26T10:43:03Z</time>
      </trkpt>
      <trkpt lat="44.60494" lon="6.06158">
        <ele>1432.501709</ele>
        <time>2013-09-26T10:43:40Z</time>
      </trkpt>
      <trkpt lat="44.60496" lon="6.06157">
        <ele>1433.9436035</ele>
        <time>2013-09-26T10:43:50Z</time>
      </trkpt>
      <trkpt lat="44.60515" lon="6.06155">
        <ele>1436.8276367</ele>
        <time>2013-09-26T10:44:03Z</time>
      </trkpt>
      <trkpt lat="44.60517" lon="6.06156">
        <ele>1436.8276367</ele>
        <time>2013-09-26T10:44:05Z</time>
      </trkpt>
      <trkpt lat="44.60521" lon="6.06159">
        <ele>1437.3083496</ele>
        <time>2013-09-26T10:44:09Z</time>
      </trkpt>
      <trkpt lat="44.60537" lon="6.06176">
        <ele>1440.6728516</ele>
        <time>2013-09-26T10:44:26Z</time>
      </trkpt>
      <trkpt lat="44.60552" lon="6.06192">
        <ele>1444.0375977</ele>
        <time>2013-09-26T10:44:48Z</time>
      </trkpt>
      <trkpt lat="44.60552" lon="6.06192">
        <ele>1445.4794922</ele>
        <time>2013-09-26T10:45:04Z</time>
      </trkpt>
      <trkpt lat="44.60552" lon="6.06192">
        <ele>1448.8439941</ele>
        <time>2013-09-26T10:45:24Z</time>
      </trkpt>
      <trkpt lat="44.60552" lon="6.06192">
        <ele>1450.7666016</ele>
        <time>2013-09-26T10:45:46Z</time>
      </trkpt>
      <trkpt lat="44.60552" lon="6.06192">
        <ele>1452.2087402</ele>
        <time>2013-09-26T10:46:02Z</time>
      </trkpt>
      <trkpt lat="44.60552" lon="6.06192">
        <ele>1452.6894531</ele>
        <time>2013-09-26T10:46:21Z</time>
      </trkpt>
      <trkpt lat="44.60552" lon="6.06192">
        <ele>1453.170166</ele>
        <time>2013-09-26T10:46:55Z</time>
      </trkpt>
      <trkpt lat="44.60552" lon="6.06192">
        <ele>1453.6508789</ele>
        <time>2013-09-26T10:47:14Z</time>
      </trkpt>
      <trkpt lat="44.60552" lon="6.06192">
        <ele>1454.1315918</ele>
        <time>2013-09-26T10:47:26Z</time>
      </trkpt>
      <trkpt lat="44.60606" lon="6.0625">
        <ele>1454.1315918</ele>
        <time>2013-09-26T10:47:31Z</time>
      </trkpt>
      <trkpt lat="44.60643" lon="6.06242">
        <ele>1456.534668</ele>
        <time>2013-09-26T10:47:57Z</time>
      </trkpt>
      <trkpt lat="44.60671" lon="6.06239">
        <ele>1458.4572754</ele>
        <time>2013-09-26T10:48:21Z</time>
      </trkpt>
      <trkpt lat="44.60688" lon="6.06237">
        <ele>1461.8220215</ele>
        <time>2013-09-26T10:48:40Z</time>
      </trkpt>
      <trkpt lat="44.60688" lon="6.06237">
        <ele>1463.7443848</ele>
        <time>2013-09-26T10:48:56Z</time>
      </trkpt>
      <trkpt lat="44.60688" lon="6.06237">
        <ele>1464.2250977</ele>
        <time>2013-09-26T10:49:12Z</time>
      </trkpt>
      <trkpt lat="44.60688" lon="6.06237">
        <ele>1465.6672363</ele>
        <time>2013-09-26T10:49:29Z</time>
      </trkpt>
      <trkpt lat="44.60688" lon="6.06237">
        <ele>1469.0319824</ele>
        <time>2013-09-26T10:49:55Z</time>
      </trkpt>
      <trkpt lat="44.60688" lon="6.06237">
        <ele>1470.9545898</ele>
        <time>2013-09-26T10:50:17Z</time>
      </trkpt>
      <trkpt lat="44.60777" lon="6.06218">
        <ele>1472.8771973</ele>
        <time>2013-09-26T10:50:39Z</time>
      </trkpt>
      <trkpt lat="44.60777" lon="6.06218">
        <ele>1476.2416992</ele>
        <time>2013-09-26T10:51:03Z</time>
      </trkpt>
      <trkpt lat="44.60777" lon="6.06218">
        <ele>1478.1643066</ele>
        <time>2013-09-26T10:51:24Z</time>
      </trkpt>
      <trkpt lat="44.60777" lon="6.06218">
        <ele>1481.5288086</ele>
        <time>2013-09-26T10:51:52Z</time>
      </trkpt>
      <trkpt lat="44.60867" lon="6.06206">
        <ele>1484.8937988</ele>
        <time>2013-09-26T10:52:15Z</time>
      </trkpt>
      <trkpt lat="44.60867" lon="6.06206">
        <ele>1488.2583008</ele>
        <time>2013-09-26T10:52:36Z</time>
      </trkpt>
      <trkpt lat="44.60867" lon="6.06206">
        <ele>1491.1420898</ele>
        <time>2013-09-26T10:52:59Z</time>
      </trkpt>
      <trkpt lat="44.60867" lon="6.06206">
        <ele>1494.026123</ele>
        <time>2013-09-26T10:53:30Z</time>
      </trkpt>
      <trkpt lat="44.60948" lon="6.06149">
        <ele>1495.4680176</ele>
        <time>2013-09-26T10:53:50Z</time>
      </trkpt>
      <trkpt lat="44.60948" lon="6.06149">
        <ele>1495.9487305</ele>
        <time>2013-09-26T10:54:31Z</time>
      </trkpt>
      <trkpt lat="44.60948" lon="6.06149">
        <ele>1496.9099121</ele>
        <time>2013-09-26T10:54:46Z</time>
      </trkpt>
      <trkpt lat="44.60948" lon="6.06149">
        <ele>1497.8713379</ele>
        <time>2013-09-26T10:55:07Z</time>
      </trkpt>
      <trkpt lat="44.60948" lon="6.06149">
        <ele>1497.8713379</ele>
        <time>2013-09-26T10:55:13Z</time>
      </trkpt>
      <trkpt lat="44.60951" lon="6.06148">
        <ele>1498.3518066</ele>
        <time>2013-09-26T11:06:44Z</time>
      </trkpt>
      <trkpt lat="44.60918" lon="6.06134">
        <ele>1499.3132324</ele>
        <time>2013-09-26T11:07:00Z</time>
      </trkpt>
      <trkpt lat="44.6091" lon="6.0613">
        <ele>1501.236084</ele>
        <time>2013-09-26T11:07:04Z</time>
      </trkpt>
      <trkpt lat="44.60885" lon="6.06121">
        <ele>1501.236084</ele>
        <time>2013-09-26T11:07:17Z</time>
      </trkpt>
      <trkpt lat="44.60861" lon="6.06112">
        <ele>1502.6779785</ele>
        <time>2013-09-26T11:07:32Z</time>
      </trkpt>
      <trkpt lat="44.60848" lon="6.06104">
        <ele>1505.0812988</ele>
        <time>2013-09-26T11:07:43Z</time>
      </trkpt>
      <trkpt lat="44.60824" lon="6.06089">
        <ele>1506.5231934</ele>
        <time>2013-09-26T11:07:56Z</time>
      </trkpt>
      <trkpt lat="44.608" lon="6.0608">
        <ele>1509.8876953</ele>
        <time>2013-09-26T11:08:13Z</time>
      </trkpt>
      <trkpt lat="44.60772" lon="6.06068">
        <ele>1512.7717285</ele>
        <time>2013-09-26T11:08:34Z</time>
      </trkpt>
      <trkpt lat="44.60748" lon="6.06055">
        <ele>1514.6943359</ele>
        <time>2013-09-26T11:08:53Z</time>
      </trkpt>
      <trkpt lat="44.6072" lon="6.06037">
        <ele>1517.0979004</ele>
        <time>2013-09-26T11:09:17Z</time>
      </trkpt>
      <trkpt lat="44.60693" lon="6.0602">
        <ele>1519.5012207</ele>
        <time>2013-09-26T11:09:39Z</time>
      </trkpt>
      <trkpt lat="44.60665" lon="6.06024">
        <ele>1521.423584</ele>
        <time>2013-09-26T11:09:58Z</time>
      </trkpt>
      <trkpt lat="44.60631" lon="6.0602">
        <ele>1523.3464355</ele>
        <time>2013-09-26T11:10:21Z</time>
      </trkpt>
      <trkpt lat="44.60599" lon="6.05977">
        <ele>1524.7883301</ele>
        <time>2013-09-26T11:10:41Z</time>
      </trkpt>
      <trkpt lat="44.60575" lon="6.05931">
        <ele>1524.7883301</ele>
        <time>2013-09-26T11:10:54Z</time>
      </trkpt>
      <trkpt lat="44.60545" lon="6.05871">
        <ele>1525.2687988</ele>
        <time>2013-09-26T11:11:11Z</time>
      </trkpt>
      <trkpt lat="44.60513" lon="6.05834">
        <ele>1525.7495117</ele>
        <time>2013-09-26T11:11:27Z</time>
      </trkpt>
      <trkpt lat="44.60497" lon="6.05828">
        <ele>1526.7109375</ele>
        <time>2013-09-26T11:11:34Z</time>
      </trkpt>
      <trkpt lat="44.60495" lon="6.05812">
        <ele>1527.1916504</ele>
        <time>2013-09-26T11:11:38Z</time>
      </trkpt>
      <trkpt lat="44.6051" lon="6.05813">
        <ele>1528.6335449</ele>
        <time>2013-09-26T11:11:45Z</time>
      </trkpt>
      <trkpt lat="44.60539" lon="6.05843">
        <ele>1530.5561523</ele>
        <time>2013-09-26T11:12:04Z</time>
      </trkpt>
      <trkpt lat="44.60565" lon="6.05878">
        <ele>1532.9594727</ele>
        <time>2013-09-26T11:12:26Z</time>
      </trkpt>
      <trkpt lat="44.60588" lon="6.05906">
        <ele>1536.3242188</ele>
        <time>2013-09-26T11:12:46Z</time>
      </trkpt>
      <trkpt lat="44.60608" lon="6.05927">
        <ele>1538.7275391</ele>
        <time>2013-09-26T11:13:03Z</time>
      </trkpt>
      <trkpt lat="44.60622" lon="6.05931">
        <ele>1541.6113281</ele>
        <time>2013-09-26T11:13:21Z</time>
      </trkpt>
      <trkpt lat="44.60635" lon="6.0593">
        <ele>1543.0532227</ele>
        <time>2013-09-26T11:13:34Z</time>
      </trkpt>
      <trkpt lat="44.60647" lon="6.05919">
        <ele>1543.0532227</ele>
        <time>2013-09-26T11:13:39Z</time>
      </trkpt>
      <trkpt lat="44.6065" lon="6.05916">
        <ele>1544.0146484</ele>
        <time>2013-09-26T11:13:42Z</time>
      </trkpt>
      <trkpt lat="44.60662" lon="6.05891">
        <ele>1546.8984375</ele>
        <time>2013-09-26T11:14:03Z</time>
      </trkpt>
      <trkpt lat="44.60686" lon="6.05857">
        <ele>1549.7827148</ele>
        <time>2013-09-26T11:14:28Z</time>
      </trkpt>
      <trkpt lat="44.60706" lon="6.05842">
        <ele>1552.185791</ele>
        <time>2013-09-26T11:14:48Z</time>
      </trkpt>
      <trkpt lat="44.60712" lon="6.0584">
        <ele>1552.6665039</ele>
        <time>2013-09-26T11:14:51Z</time>
      </trkpt>
      <trkpt lat="44.60735" lon="6.05857">
        <ele>1554.5891113</ele>
        <time>2013-09-26T11:15:13Z</time>
      </trkpt>
      <trkpt lat="44.60755" lon="6.05857">
        <ele>1556.9924316</ele>
        <time>2013-09-26T11:15:30Z</time>
      </trkpt>
      <trkpt lat="44.60776" lon="6.05837">
        <ele>1559.8762207</ele>
        <time>2013-09-26T11:15:52Z</time>
      </trkpt>
      <trkpt lat="44.60778" lon="6.05825">
        <ele>1561.3183594</ele>
        <time>2013-09-26T11:16:06Z</time>
      </trkpt>
      <trkpt lat="44.60774" lon="6.05802">
        <ele>1564.6831055</ele>
        <time>2013-09-26T11:16:26Z</time>
      </trkpt>
      <trkpt lat="44.60763" lon="6.05771">
        <ele>1567.0864258</ele>
        <time>2013-09-26T11:16:45Z</time>
      </trkpt>
      <trkpt lat="44.60761" lon="6.05739">
        <ele>1568.5283203</ele>
        <time>2013-09-26T11:16:59Z</time>
      </trkpt>
      <trkpt lat="44.60771" lon="6.0573">
        <ele>1569.0090332</ele>
        <time>2013-09-26T11:17:08Z</time>
      </trkpt>
      <trkpt lat="44.60793" lon="6.05722">
        <ele>1570.9316406</ele>
        <time>2013-09-26T11:17:28Z</time>
      </trkpt>
      <trkpt lat="44.60812" lon="6.05714">
        <ele>1572.3735352</ele>
        <time>2013-09-26T11:17:45Z</time>
      </trkpt>
      <trkpt lat="44.60812" lon="6.05714">
        <ele>1571.8928223</ele>
        <time>2013-09-26T11:18:12Z</time>
      </trkpt>
      <trkpt lat="44.60812" lon="6.05714">
        <ele>1572.854248</ele>
        <time>2013-09-26T11:18:43Z</time>
      </trkpt>
      <trkpt lat="44.60824" lon="6.05704">
        <ele>1572.3735352</ele>
        <time>2013-09-26T11:18:59Z</time>
      </trkpt>
      <trkpt lat="44.60829" lon="6.05701">
        <ele>1572.854248</ele>
        <time>2013-09-26T11:19:02Z</time>
      </trkpt>
      <trkpt lat="44.60852" lon="6.0568">
        <ele>1574.2961426</ele>
        <time>2013-09-26T11:19:22Z</time>
      </trkpt>
      <trkpt lat="44.6087" lon="6.0566">
        <ele>1577.1801758</ele>
        <time>2013-09-26T11:19:40Z</time>
      </trkpt>
      <trkpt lat="44.60893" lon="6.05645">
        <ele>1579.1025391</ele>
        <time>2013-09-26T11:19:59Z</time>
      </trkpt>
      <trkpt lat="44.60904" lon="6.05637">
        <ele>1580.064209</ele>
        <time>2013-09-26T11:20:12Z</time>
      </trkpt>
      <trkpt lat="44.60904" lon="6.05637">
        <ele>1580.5449219</ele>
        <time>2013-09-26T11:20:15Z</time>
      </trkpt>
      <trkpt lat="44.60927" lon="6.05611">
        <ele>1583.4287109</ele>
        <time>2013-09-26T11:20:39Z</time>
      </trkpt>
      <trkpt lat="44.60949" lon="6.05593">
        <ele>1585.3513184</ele>
        <time>2013-09-26T11:20:57Z</time>
      </trkpt>
      <trkpt lat="44.60972" lon="6.05587">
        <ele>1587.2739258</ele>
        <time>2013-09-26T11:21:17Z</time>
      </trkpt>
      <trkpt lat="44.60985" lon="6.05584">
        <ele>1589.1965332</ele>
        <time>2013-09-26T11:21:33Z</time>
      </trkpt>
      <trkpt lat="44.61013" lon="6.05562">
        <ele>1591.1191406</ele>
        <time>2013-09-26T11:21:52Z</time>
      </trkpt>
      <trkpt lat="44.61034" lon="6.05548">
        <ele>1593.041748</ele>
        <time>2013-09-26T11:22:13Z</time>
      </trkpt>
      <trkpt lat="44.61055" lon="6.05529">
        <ele>1594.9643555</ele>
        <time>2013-09-26T11:22:33Z</time>
      </trkpt>
      <trkpt lat="44.61076" lon="6.0551">
        <ele>1597.3679199</ele>
        <time>2013-09-26T11:22:52Z</time>
      </trkpt>
      <trkpt lat="44.61077" lon="6.05509">
        <ele>1597.8486328</ele>
        <time>2013-09-26T11:22:54Z</time>
      </trkpt>
      <trkpt lat="44.61083" lon="6.05504">
        <ele>1598.8098145</ele>
        <time>2013-09-26T11:22:59Z</time>
      </trkpt>
      <trkpt lat="44.61083" lon="6.05504">
        <ele>1598.8098145</ele>
        <time>2013-09-26T11:23:01Z</time>
      </trkpt>
      <trkpt lat="44.61083" lon="6.05504">
        <ele>1599.2905273</ele>
        <time>2013-09-26T11:23:05Z</time>
      </trkpt>
      <trkpt lat="44.6109" lon="6.05498">
        <ele>1600.2519531</ele>
        <time>2013-09-26T11:23:08Z</time>
      </trkpt>
      <trkpt lat="44.61101" lon="6.05489">
        <ele>1601.2131348</ele>
        <time>2013-09-26T11:23:19Z</time>
      </trkpt>
      <trkpt lat="44.61105" lon="6.05487">
        <ele>1601.6938477</ele>
        <time>2013-09-26T11:23:21Z</time>
      </trkpt>
      <trkpt lat="44.61123" lon="6.0548">
        <ele>1603.1357422</ele>
        <time>2013-09-26T11:23:37Z</time>
      </trkpt>
      <trkpt lat="44.61153" lon="6.05473">
        <ele>1605.5390625</ele>
        <time>2013-09-26T11:24:02Z</time>
      </trkpt>
      <trkpt lat="44.61176" lon="6.05466">
        <ele>1608.4228516</ele>
        <time>2013-09-26T11:24:26Z</time>
      </trkpt>
      <trkpt lat="44.61176" lon="6.05466">
        <ele>1608.4228516</ele>
        <time>2013-09-26T11:24:27Z</time>
      </trkpt>
      <trkpt lat="44.61183" lon="6.05465">
        <ele>1608.9035645</ele>
        <time>2013-09-26T11:24:31Z</time>
      </trkpt>
      <trkpt lat="44.61204" lon="6.05455">
        <ele>1610.8261719</ele>
        <time>2013-09-26T11:24:47Z</time>
      </trkpt>
      <trkpt lat="44.61204" lon="6.05455">
        <ele>1613.2297363</ele>
        <time>2013-09-26T11:25:03Z</time>
      </trkpt>
      <trkpt lat="44.61204" lon="6.05455">
        <ele>1615.6330566</ele>
        <time>2013-09-26T11:25:24Z</time>
      </trkpt>
      <trkpt lat="44.61204" lon="6.05455">
        <ele>1617.0749512</ele>
        <time>2013-09-26T11:25:40Z</time>
      </trkpt>
      <trkpt lat="44.61257" lon="6.05382">
        <ele>1618.9975586</ele>
        <time>2013-09-26T11:25:58Z</time>
      </trkpt>
      <trkpt lat="44.6126" lon="6.05378">
        <ele>1619.4782715</ele>
        <time>2013-09-26T11:26:03Z</time>
      </trkpt>
      <trkpt lat="44.61253" lon="6.05364">
        <ele>1619.9587402</ele>
        <time>2013-09-26T11:26:09Z</time>
      </trkpt>
      <trkpt lat="44.61233" lon="6.05378">
        <ele>1621.4006348</ele>
        <time>2013-09-26T11:26:25Z</time>
      </trkpt>
      <trkpt lat="44.6121" lon="6.05393">
        <ele>1622.3620605</ele>
        <time>2013-09-26T11:26:43Z</time>
      </trkpt>
      <trkpt lat="44.61198" lon="6.05402">
        <ele>1623.3234863</ele>
        <time>2013-09-26T11:26:52Z</time>
      </trkpt>
      <trkpt lat="44.61185" lon="6.05408">
        <ele>1624.284668</ele>
        <time>2013-09-26T11:27:03Z</time>
      </trkpt>
      <trkpt lat="44.61146" lon="6.05411">
        <ele>1624.7653809</ele>
        <time>2013-09-26T11:27:25Z</time>
      </trkpt>
      <trkpt lat="44.61132" lon="6.05402">
        <ele>1626.6879883</ele>
        <time>2013-09-26T11:27:43Z</time>
      </trkpt>
      <trkpt lat="44.61132" lon="6.05402">
        <ele>1627.1687012</ele>
        <time>2013-09-26T11:28:09Z</time>
      </trkpt>
      <trkpt lat="44.61132" lon="6.05402">
        <ele>1627.6491699</ele>
        <time>2013-09-26T11:28:50Z</time>
      </trkpt>
      <trkpt lat="44.61132" lon="6.05402">
        <ele>1627.6491699</ele>
        <time>2013-09-26T11:28:51Z</time>
      </trkpt>
      <trkpt lat="44.61132" lon="6.05402">
        <ele>1627.6491699</ele>
        <time>2013-09-26T11:28:53Z</time>
      </trkpt>
      <trkpt lat="44.61162" lon="6.05383">
        <ele>1630.0527344</ele>
        <time>2013-09-26T11:29:14Z</time>
      </trkpt>
      <trkpt lat="44.61188" lon="6.05363">
        <ele>1631.4946289</ele>
        <time>2013-09-26T11:29:34Z</time>
      </trkpt>
      <trkpt lat="44.61194" lon="6.05355">
        <ele>1631.4946289</ele>
        <time>2013-09-26T11:29:39Z</time>
      </trkpt>
      <trkpt lat="44.61219" lon="6.05322">
        <ele>1634.859375</ele>
        <time>2013-09-26T11:30:03Z</time>
      </trkpt>
      <trkpt lat="44.61249" lon="6.05309">
        <ele>1635.8205566</ele>
        <time>2013-09-26T11:30:25Z</time>
      </trkpt>
      <trkpt lat="44.61275" lon="6.05277">
        <ele>1637.2624512</ele>
        <time>2013-09-26T11:30:46Z</time>
      </trkpt>
      <trkpt lat="44.61291" lon="6.05276">
        <ele>1638.7045898</ele>
        <time>2013-09-26T11:30:56Z</time>
      </trkpt>
      <trkpt lat="44.61326" lon="6.05276">
        <ele>1641.107666</ele>
        <time>2013-09-26T11:31:18Z</time>
      </trkpt>
      <trkpt lat="44.61357" lon="6.05266">
        <ele>1643.5109863</ele>
        <time>2013-09-26T11:31:41Z</time>
      </trkpt>
      <trkpt lat="44.6136" lon="6.05264">
        <ele>1643.9916992</ele>
        <time>2013-09-26T11:31:44Z</time>
      </trkpt>
      <trkpt lat="44.61376" lon="6.0525">
        <ele>1646.3952637</ele>
        <time>2013-09-26T11:32:01Z</time>
      </trkpt>
      <trkpt lat="44.61395" lon="6.05233">
        <ele>1647.3564453</ele>
        <time>2013-09-26T11:32:20Z</time>
      </trkpt>
      <trkpt lat="44.61415" lon="6.05216">
        <ele>1649.7597656</ele>
        <time>2013-09-26T11:32:40Z</time>
      </trkpt>
      <trkpt lat="44.61438" lon="6.05202">
        <ele>1651.682373</ele>
        <time>2013-09-26T11:33:01Z</time>
      </trkpt>
      <trkpt lat="44.6147" lon="6.05196">
        <ele>1653.1242676</ele>
        <time>2013-09-26T11:33:21Z</time>
      </trkpt>
      <trkpt lat="44.61492" lon="6.05188">
        <ele>1655.046875</ele>
        <time>2013-09-26T11:33:37Z</time>
      </trkpt>
      <trkpt lat="44.61514" lon="6.05187">
        <ele>1656.4887695</ele>
        <time>2013-09-26T11:33:52Z</time>
      </trkpt>
      <trkpt lat="44.61544" lon="6.05175">
        <ele>1657.9309082</ele>
        <time>2013-09-26T11:34:12Z</time>
      </trkpt>
      <trkpt lat="44.61577" lon="6.05169">
        <ele>1660.8149414</ele>
        <time>2013-09-26T11:34:34Z</time>
      </trkpt>
      <trkpt lat="44.61608" lon="6.05166">
        <ele>1663.2182617</ele>
        <time>2013-09-26T11:34:58Z</time>
      </trkpt>
      <trkpt lat="44.61634" lon="6.05156">
        <ele>1665.621582</ele>
        <time>2013-09-26T11:35:15Z</time>
      </trkpt>
      <trkpt lat="44.61648" lon="6.0515">
        <ele>1666.5827637</ele>
        <time>2013-09-26T11:35:28Z</time>
      </trkpt>
      <trkpt lat="44.61664" lon="6.05143">
        <ele>1668.5053711</ele>
        <time>2013-09-26T11:35:42Z</time>
      </trkpt>
      <trkpt lat="44.61674" lon="6.05139">
        <ele>1668.986084</ele>
        <time>2013-09-26T11:35:49Z</time>
      </trkpt>
      <trkpt lat="44.6169" lon="6.05131">
        <ele>1670.4279785</ele>
        <time>2013-09-26T11:36:00Z</time>
      </trkpt>
      <trkpt lat="44.61693" lon="6.0513">
        <ele>1670.9086914</ele>
        <time>2013-09-26T11:36:03Z</time>
      </trkpt>
      <trkpt lat="44.61723" lon="6.05119">
        <ele>1672.8312988</ele>
        <time>2013-09-26T11:36:24Z</time>
      </trkpt>
      <trkpt lat="44.61729" lon="6.05117">
        <ele>1673.3120117</ele>
        <time>2013-09-26T11:36:29Z</time>
      </trkpt>
      <trkpt lat="44.61738" lon="6.05113">
        <ele>1673.7924805</ele>
        <time>2013-09-26T11:36:36Z</time>
      </trkpt>
      <trkpt lat="44.61761" lon="6.05104">
        <ele>1675.7150879</ele>
        <time>2013-09-26T11:36:51Z</time>
      </trkpt>
      <trkpt lat="44.61775" lon="6.05098">
        <ele>1676.6767578</ele>
        <time>2013-09-26T11:37:03Z</time>
      </trkpt>
      <trkpt lat="44.61793" lon="6.05089">
        <ele>1677.1574707</ele>
        <time>2013-09-26T11:37:13Z</time>
      </trkpt>
      <trkpt lat="44.61796" lon="6.05087">
        <ele>1677.6379395</ele>
        <time>2013-09-26T11:37:15Z</time>
      </trkpt>
      <trkpt lat="44.61825" lon="6.05071">
        <ele>1679.5605469</ele>
        <time>2013-09-26T11:37:36Z</time>
      </trkpt>
      <trkpt lat="44.61826" lon="6.05071">
        <ele>1679.5605469</ele>
        <time>2013-09-26T11:37:37Z</time>
      </trkpt>
      <trkpt lat="44.6185" lon="6.0506">
        <ele>1681.0026855</ele>
        <time>2013-09-26T11:37:54Z</time>
      </trkpt>
      <trkpt lat="44.61874" lon="6.05049">
        <ele>1682.9250488</ele>
        <time>2013-09-26T11:38:09Z</time>
      </trkpt>
      <trkpt lat="44.61891" lon="6.05042">
        <ele>1683.8864746</ele>
        <time>2013-09-26T11:38:21Z</time>
      </trkpt>
      <trkpt lat="44.61912" lon="6.05034">
        <ele>1684.3671875</ele>
        <time>2013-09-26T11:38:34Z</time>
      </trkpt>
      <trkpt lat="44.61929" lon="6.05027">
        <ele>1685.3283691</ele>
        <time>2013-09-26T11:38:43Z</time>
      </trkpt>
      <trkpt lat="44.61952" lon="6.05021">
        <ele>1686.2897949</ele>
        <time>2013-09-26T11:38:56Z</time>
      </trkpt>
      <trkpt lat="44.6197" lon="6.05014">
        <ele>1686.2897949</ele>
        <time>2013-09-26T11:39:06Z</time>
      </trkpt>
      <trkpt lat="44.61967" lon="6.05015">
        <ele>1686.7702637</ele>
        <time>2013-09-26T11:39:09Z</time>
      </trkpt>
      <trkpt lat="44.61985" lon="6.05006">
        <ele>1686.7702637</ele>
        <time>2013-09-26T11:39:19Z</time>
      </trkpt>
      <trkpt lat="44.61996" lon="6.04999">
        <ele>1687.2509766</ele>
        <time>2013-09-26T11:39:25Z</time>
      </trkpt>
      <trkpt lat="44.62006" lon="6.04993">
        <ele>1688.2124023</ele>
        <time>2013-09-26T11:39:30Z</time>
      </trkpt>
      <trkpt lat="44.62026" lon="6.04976">
        <ele>1689.173584</ele>
        <time>2013-09-26T11:39:43Z</time>
      </trkpt>
      <trkpt lat="44.6203" lon="6.04972">
        <ele>1689.6542969</ele>
        <time>2013-09-26T11:39:47Z</time>
      </trkpt>
      <trkpt lat="44.6205" lon="6.04953">
        <ele>1691.0961914</ele>
        <time>2013-09-26T11:40:02Z</time>
      </trkpt>
      <trkpt lat="44.62085" lon="6.04942">
        <ele>1693.019043</ele>
        <time>2013-09-26T11:40:20Z</time>
      </trkpt>
      <trkpt lat="44.62095" lon="6.04936">
        <ele>1693.9804688</ele>
        <time>2013-09-26T11:40:26Z</time>
      </trkpt>
      <trkpt lat="44.62115" lon="6.04925">
        <ele>1693.9804688</ele>
        <time>2013-09-26T11:40:37Z</time>
      </trkpt>
      <trkpt lat="44.62148" lon="6.04906">
        <ele>1694.9416504</ele>
        <time>2013-09-26T11:40:54Z</time>
      </trkpt>
      <trkpt lat="44.62163" lon="6.04893">
        <ele>1696.3837891</ele>
        <time>2013-09-26T11:41:04Z</time>
      </trkpt>
      <trkpt lat="44.62165" lon="6.0489">
        <ele>1696.3837891</ele>
        <time>2013-09-26T11:41:07Z</time>
      </trkpt>
      <trkpt lat="44.62168" lon="6.04887">
        <ele>1697.3449707</ele>
        <time>2013-09-26T11:41:10Z</time>
      </trkpt>
      <trkpt lat="44.62181" lon="6.04876">
        <ele>1697.3449707</ele>
        <time>2013-09-26T11:41:18Z</time>
      </trkpt>
      <trkpt lat="44.62184" lon="6.04872">
        <ele>1697.3449707</ele>
        <time>2013-09-26T11:41:20Z</time>
      </trkpt>
      <trkpt lat="44.62187" lon="6.04867">
        <ele>1698.3061523</ele>
        <time>2013-09-26T11:41:23Z</time>
      </trkpt>
      <trkpt lat="44.62196" lon="6.04856">
        <ele>1698.3061523</ele>
        <time>2013-09-26T11:41:34Z</time>
      </trkpt>
      <trkpt lat="44.62201" lon="6.04854">
        <ele>1698.7868652</ele>
        <time>2013-09-26T11:41:54Z</time>
      </trkpt>
      <trkpt lat="44.62201" lon="6.04854">
        <ele>1698.3061523</ele>
        <time>2013-09-26T11:42:07Z</time>
      </trkpt>
      <trkpt lat="44.62202" lon="6.04849">
        <ele>1698.3061523</ele>
        <time>2013-09-26T11:42:12Z</time>
      </trkpt>
      <trkpt lat="44.62212" lon="6.04823">
        <ele>1697.3449707</ele>
        <time>2013-09-26T11:42:37Z</time>
      </trkpt>
      <trkpt lat="44.62218" lon="6.04813">
        <ele>1696.3837891</ele>
        <time>2013-09-26T11:42:55Z</time>
      </trkpt>
      <trkpt lat="44.62218" lon="6.04813">
        <ele>1697.8256836</ele>
        <time>2013-09-26T11:43:21Z</time>
      </trkpt>
      <trkpt lat="44.62214" lon="6.04819">
        <ele>1697.8256836</ele>
        <time>2013-09-26T11:43:26Z</time>
      </trkpt>
      <trkpt lat="44.62203" lon="6.04838">
        <ele>1698.3061523</ele>
        <time>2013-09-26T11:43:44Z</time>
      </trkpt>
      <trkpt lat="44.62196" lon="6.04843">
        <ele>1698.7868652</ele>
        <time>2013-09-26T11:43:56Z</time>
      </trkpt>
      <trkpt lat="44.62192" lon="6.04849">
        <ele>1698.3061523</ele>
        <time>2013-09-26T11:44:09Z</time>
      </trkpt>
      <trkpt lat="44.62191" lon="6.04848">
        <ele>1698.7868652</ele>
        <time>2013-09-26T11:44:30Z</time>
      </trkpt>
      <trkpt lat="44.62189" lon="6.04854">
        <ele>1698.7868652</ele>
        <time>2013-09-26T11:44:44Z</time>
      </trkpt>
      <trkpt lat="44.62177" lon="6.04876">
        <ele>1698.7868652</ele>
        <time>2013-09-26T11:44:56Z</time>
      </trkpt>
      <trkpt lat="44.62151" lon="6.04903">
        <ele>1696.8642578</ele>
        <time>2013-09-26T11:45:06Z</time>
      </trkpt>
      <trkpt lat="44.62138" lon="6.04913">
        <ele>1695.9030762</ele>
        <time>2013-09-26T11:45:09Z</time>
      </trkpt>
      <trkpt lat="44.62111" lon="6.04928">
        <ele>1694.9416504</ele>
        <time>2013-09-26T11:45:15Z</time>
      </trkpt>
      <trkpt lat="44.62065" lon="6.0495">
        <ele>1693.4997559</ele>
        <time>2013-09-26T11:45:25Z</time>
      </trkpt>
      <trkpt lat="44.62052" lon="6.04952">
        <ele>1693.019043</ele>
        <time>2013-09-26T11:45:28Z</time>
      </trkpt>
      <trkpt lat="44.62035" lon="6.04967">
        <ele>1691.5769043</ele>
        <time>2013-09-26T11:45:32Z</time>
      </trkpt>
      <trkpt lat="44.62013" lon="6.04988">
        <ele>1690.1350098</ele>
        <time>2013-09-26T11:45:38Z</time>
      </trkpt>
      <trkpt lat="44.61983" lon="6.05007">
        <ele>1688.2124023</ele>
        <time>2013-09-26T11:45:44Z</time>
      </trkpt>
      <trkpt lat="44.61952" lon="6.05021">
        <ele>1687.7316895</ele>
        <time>2013-09-26T11:45:50Z</time>
      </trkpt>
      <trkpt lat="44.61909" lon="6.05035">
        <ele>1686.2897949</ele>
        <time>2013-09-26T11:45:58Z</time>
      </trkpt>
      <trkpt lat="44.61875" lon="6.05049">
        <ele>1684.8479004</ele>
        <time>2013-09-26T11:46:06Z</time>
      </trkpt>
      <trkpt lat="44.61861" lon="6.05055">
        <ele>1683.8864746</ele>
        <time>2013-09-26T11:46:09Z</time>
      </trkpt>
      <trkpt lat="44.61818" lon="6.05076">
        <ele>1681.0026855</ele>
        <time>2013-09-26T11:46:19Z</time>
      </trkpt>
      <trkpt lat="44.61774" lon="6.05099">
        <ele>1678.1186523</ele>
        <time>2013-09-26T11:46:32Z</time>
      </trkpt>
      <trkpt lat="44.61745" lon="6.0511">
        <ele>1676.6767578</ele>
        <time>2013-09-26T11:46:40Z</time>
      </trkpt>
      <trkpt lat="44.61702" lon="6.05126">
        <ele>1673.7924805</ele>
        <time>2013-09-26T11:46:51Z</time>
      </trkpt>
      <trkpt lat="44.6167" lon="6.05141">
        <ele>1671.3891602</ele>
        <time>2013-09-26T11:46:59Z</time>
      </trkpt>
      <trkpt lat="44.61631" lon="6.05157">
        <ele>1668.0246582</ele>
        <time>2013-09-26T11:47:10Z</time>
      </trkpt>
      <trkpt lat="44.61602" lon="6.05168">
        <ele>1666.1020508</ele>
        <time>2013-09-26T11:47:17Z</time>
      </trkpt>
      <trkpt lat="44.61562" lon="6.05169">
        <ele>1662.7375488</ele>
        <time>2013-09-26T11:47:28Z</time>
      </trkpt>
      <trkpt lat="44.61518" lon="6.05187">
        <ele>1659.8532715</ele>
        <time>2013-09-26T11:47:42Z</time>
      </trkpt>
      <trkpt lat="44.61484" lon="6.0519">
        <ele>1657.4501953</ele>
        <time>2013-09-26T11:47:52Z</time>
      </trkpt>
      <trkpt lat="44.61445" lon="6.052">
        <ele>1655.046875</ele>
        <time>2013-09-26T11:48:03Z</time>
      </trkpt>
      <trkpt lat="44.61402" lon="6.05227">
        <ele>1652.1628418</ele>
        <time>2013-09-26T11:48:17Z</time>
      </trkpt>
      <trkpt lat="44.61379" lon="6.05247">
        <ele>1650.2404785</ele>
        <time>2013-09-26T11:48:25Z</time>
      </trkpt>
      <trkpt lat="44.61368" lon="6.05258">
        <ele>1648.7983398</ele>
        <time>2013-09-26T11:48:29Z</time>
      </trkpt>
      <trkpt lat="44.61333" lon="6.05274">
        <ele>1644.953125</ele>
        <time>2013-09-26T11:48:40Z</time>
      </trkpt>
      <trkpt lat="44.61286" lon="6.05276">
        <ele>1642.0690918</ele>
        <time>2013-09-26T11:48:54Z</time>
      </trkpt>
      <trkpt lat="44.61271" lon="6.0528">
        <ele>1640.6269531</ele>
        <time>2013-09-26T11:48:58Z</time>
      </trkpt>
      <trkpt lat="44.61231" lon="6.05319">
        <ele>1638.7045898</ele>
        <time>2013-09-26T11:49:12Z</time>
      </trkpt>
      <trkpt lat="44.61201" lon="6.05346">
        <ele>1636.3012695</ele>
        <time>2013-09-26T11:49:22Z</time>
      </trkpt>
      <trkpt lat="44.61198" lon="6.0535">
        <ele>1636.3012695</ele>
        <time>2013-09-26T11:49:23Z</time>
      </trkpt>
      <trkpt lat="44.61184" lon="6.05368">
        <ele>1635.3398438</ele>
        <time>2013-09-26T11:49:27Z</time>
      </trkpt>
      <trkpt lat="44.61145" lon="6.05388">
        <ele>1632.4560547</ele>
        <time>2013-09-26T11:49:38Z</time>
      </trkpt>
      <trkpt lat="44.61132" lon="6.054">
        <ele>1631.9753418</ele>
        <time>2013-09-26T11:49:42Z</time>
      </trkpt>
      <trkpt lat="44.61132" lon="6.05402">
        <ele>1631.0141602</ele>
        <time>2013-09-26T11:49:57Z</time>
      </trkpt>
      <trkpt lat="44.61132" lon="6.05402">
        <ele>1631.0141602</ele>
        <time>2013-09-26T11:50:35Z</time>
      </trkpt>
      <trkpt lat="44.61132" lon="6.05402">
        <ele>1631.9753418</ele>
        <time>2013-09-26T11:51:00Z</time>
      </trkpt>
      <trkpt lat="44.61132" lon="6.05402">
        <ele>1631.4946289</ele>
        <time>2013-09-26T11:51:27Z</time>
      </trkpt>
      <trkpt lat="44.61132" lon="6.05402">
        <ele>1631.4946289</ele>
        <time>2013-09-26T11:51:28Z</time>
      </trkpt>
      <trkpt lat="44.61144" lon="6.05411">
        <ele>1631.4946289</ele>
        <time>2013-09-26T11:51:32Z</time>
      </trkpt>
      <trkpt lat="44.61193" lon="6.05404">
        <ele>1629.5720215</ele>
        <time>2013-09-26T11:51:47Z</time>
      </trkpt>
      <trkpt lat="44.61212" lon="6.05392">
        <ele>1628.6108398</ele>
        <time>2013-09-26T11:51:53Z</time>
      </trkpt>
      <trkpt lat="44.61223" lon="6.05385">
        <ele>1627.6491699</ele>
        <time>2013-09-26T11:51:58Z</time>
      </trkpt>
      <trkpt lat="44.6126" lon="6.05373">
        <ele>1626.6879883</ele>
        <time>2013-09-26T11:52:10Z</time>
      </trkpt>
      <trkpt lat="44.61254" lon="6.05388">
        <ele>1625.2458496</ele>
        <time>2013-09-26T11:52:15Z</time>
      </trkpt>
      <trkpt lat="44.61232" lon="6.05421">
        <ele>1622.8427734</ele>
        <time>2013-09-26T11:52:23Z</time>
      </trkpt>
      <trkpt lat="44.61229" lon="6.05425">
        <ele>1621.4006348</ele>
        <time>2013-09-26T11:52:24Z</time>
      </trkpt>
      <trkpt lat="44.61214" lon="6.05447">
        <ele>1619.4782715</ele>
        <time>2013-09-26T11:52:29Z</time>
      </trkpt>
      <trkpt lat="44.61201" lon="6.05458">
        <ele>1618.0361328</ele>
        <time>2013-09-26T11:52:33Z</time>
      </trkpt>
      <trkpt lat="44.61165" lon="6.05469">
        <ele>1614.190918</ele>
        <time>2013-09-26T11:52:42Z</time>
      </trkpt>
      <trkpt lat="44.61136" lon="6.05477">
        <ele>1611.3068848</ele>
        <time>2013-09-26T11:52:49Z</time>
      </trkpt>
      <trkpt lat="44.61115" lon="6.05483">
        <ele>1610.345459</ele>
        <time>2013-09-26T11:52:53Z</time>
      </trkpt>
      <trkpt lat="44.61083" lon="6.05503">
        <ele>1607.4616699</ele>
        <time>2013-09-26T11:53:00Z</time>
      </trkpt>
      <trkpt lat="44.61065" lon="6.05519">
        <ele>1605.5390625</ele>
        <time>2013-09-26T11:53:04Z</time>
      </trkpt>
      <trkpt lat="44.61054" lon="6.0553">
        <ele>1603.6164551</ele>
        <time>2013-09-26T11:53:07Z</time>
      </trkpt>
      <trkpt lat="44.61029" lon="6.05551">
        <ele>1599.7712402</ele>
        <time>2013-09-26T11:53:13Z</time>
      </trkpt>
      <trkpt lat="44.61024" lon="6.05554">
        <ele>1599.7712402</ele>
        <time>2013-09-26T11:53:14Z</time>
      </trkpt>
      <trkpt lat="44.61014" lon="6.0556">
        <ele>1599.2905273</ele>
        <time>2013-09-26T11:53:16Z</time>
      </trkpt>
      <trkpt lat="44.60996" lon="6.05576">
        <ele>1597.8486328</ele>
        <time>2013-09-26T11:53:20Z</time>
      </trkpt>
      <trkpt lat="44.6097" lon="6.05587">
        <ele>1594.9643555</ele>
        <time>2013-09-26T11:53:25Z</time>
      </trkpt>
      <trkpt lat="44.60951" lon="6.05593">
        <ele>1593.041748</ele>
        <time>2013-09-26T11:53:29Z</time>
      </trkpt>
      <trkpt lat="44.60936" lon="6.05603">
        <ele>1592.5612793</ele>
        <time>2013-09-26T11:53:32Z</time>
      </trkpt>
      <trkpt lat="44.60911" lon="6.05631">
        <ele>1589.1965332</ele>
        <time>2013-09-26T11:53:37Z</time>
      </trkpt>
      <trkpt lat="44.60906" lon="6.05635">
        <ele>1588.2353516</ele>
        <time>2013-09-26T11:53:38Z</time>
      </trkpt>
      <trkpt lat="44.60889" lon="6.05647">
        <ele>1586.7932129</ele>
        <time>2013-09-26T11:53:41Z</time>
      </trkpt>
      <trkpt lat="44.60876" lon="6.05655">
        <ele>1585.3513184</ele>
        <time>2013-09-26T11:53:44Z</time>
      </trkpt>
      <trkpt lat="44.60859" lon="6.05673">
        <ele>1584.3901367</ele>
        <time>2013-09-26T11:53:48Z</time>
      </trkpt>
      <trkpt lat="44.60845" lon="6.05686">
        <ele>1581.9868164</ele>
        <time>2013-09-26T11:53:51Z</time>
      </trkpt>
      <trkpt lat="44.60836" lon="6.05695">
        <ele>1581.5061035</ele>
        <time>2013-09-26T11:53:53Z</time>
      </trkpt>
      <trkpt lat="44.60819" lon="6.05708">
        <ele>1580.064209</ele>
        <time>2013-09-26T11:54:03Z</time>
      </trkpt>
      <trkpt lat="44.60819" lon="6.05708">
        <ele>1580.064209</ele>
        <time>2013-09-26T11:54:19Z</time>
      </trkpt>
      <trkpt lat="44.60819" lon="6.05708">
        <ele>1580.5449219</ele>
        <time>2013-09-26T11:54:42Z</time>
      </trkpt>
      <trkpt lat="44.60819" lon="6.05708">
        <ele>1579.583252</ele>
        <time>2013-09-26T11:55:01Z</time>
      </trkpt>
      <trkpt lat="44.60802" lon="6.05718">
        <ele>1579.1025391</ele>
        <time>2013-09-26T11:55:14Z</time>
      </trkpt>
      <trkpt lat="44.60762" lon="6.05737">
        <ele>1577.1801758</ele>
        <time>2013-09-26T11:55:26Z</time>
      </trkpt>
      <trkpt lat="44.60763" lon="6.05772">
        <ele>1574.2961426</ele>
        <time>2013-09-26T11:55:34Z</time>
      </trkpt>
      <trkpt lat="44.60775" lon="6.05808">
        <ele>1571.4121094</ele>
        <time>2013-09-26T11:55:43Z</time>
      </trkpt>
      <trkpt lat="44.60775" lon="6.05841">
        <ele>1567.0864258</ele>
        <time>2013-09-26T11:55:51Z</time>
      </trkpt>
      <trkpt lat="44.60773" lon="6.05844">
        <ele>1567.0864258</ele>
        <time>2013-09-26T11:55:52Z</time>
      </trkpt>
      <trkpt lat="44.60762" lon="6.05853">
        <ele>1566.125</ele>
        <time>2013-09-26T11:55:56Z</time>
      </trkpt>
      <trkpt lat="44.60747" lon="6.0586">
        <ele>1565.1638184</ele>
        <time>2013-09-26T11:56:01Z</time>
      </trkpt>
      <trkpt lat="44.6072" lon="6.05842">
        <ele>1562.7602539</ele>
        <time>2013-09-26T11:56:11Z</time>
      </trkpt>
      <trkpt lat="44.60717" lon="6.05841">
        <ele>1562.279541</ele>
        <time>2013-09-26T11:56:12Z</time>
      </trkpt>
      <trkpt lat="44.60683" lon="6.0586">
        <ele>1558.4343262</ele>
        <time>2013-09-26T11:56:24Z</time>
      </trkpt>
      <trkpt lat="44.60668" lon="6.05878">
        <ele>1556.5117188</ele>
        <time>2013-09-26T11:56:30Z</time>
      </trkpt>
      <trkpt lat="44.60653" lon="6.0591">
        <ele>1553.1472168</ele>
        <time>2013-09-26T11:56:37Z</time>
      </trkpt>
      <trkpt lat="44.60629" lon="6.05932">
        <ele>1550.2634277</ele>
        <time>2013-09-26T11:56:45Z</time>
      </trkpt>
      <trkpt lat="44.60617" lon="6.0593">
        <ele>1548.8212891</ele>
        <time>2013-09-26T11:56:49Z</time>
      </trkpt>
      <trkpt lat="44.60597" lon="6.05917">
        <ele>1546.4179688</ele>
        <time>2013-09-26T11:56:55Z</time>
      </trkpt>
      <trkpt lat="44.60576" lon="6.05892">
        <ele>1543.5339355</ele>
        <time>2013-09-26T11:57:02Z</time>
      </trkpt>
      <trkpt lat="44.60572" lon="6.05887">
        <ele>1543.0532227</ele>
        <time>2013-09-26T11:57:03Z</time>
      </trkpt>
      <trkpt lat="44.60544" lon="6.05849">
        <ele>1539.6887207</ele>
        <time>2013-09-26T11:57:10Z</time>
      </trkpt>
      <trkpt lat="44.6054" lon="6.05844">
        <ele>1539.6887207</ele>
        <time>2013-09-26T11:57:11Z</time>
      </trkpt>
      <trkpt lat="44.60503" lon="6.05811">
        <ele>1537.7661133</ele>
        <time>2013-09-26T11:57:21Z</time>
      </trkpt>
      <trkpt lat="44.60498" lon="6.05829">
        <ele>1536.3242188</ele>
        <time>2013-09-26T11:57:29Z</time>
      </trkpt>
      <trkpt lat="44.6054" lon="6.05863">
        <ele>1534.4016113</ele>
        <time>2013-09-26T11:57:41Z</time>
      </trkpt>
      <trkpt lat="44.6057" lon="6.05923">
        <ele>1534.8823242</ele>
        <time>2013-09-26T11:57:55Z</time>
      </trkpt>
      <trkpt lat="44.60606" lon="6.05989">
        <ele>1534.4016113</ele>
        <time>2013-09-26T11:58:11Z</time>
      </trkpt>
      <trkpt lat="44.6063" lon="6.06018">
        <ele>1533.4401855</ele>
        <time>2013-09-26T11:58:19Z</time>
      </trkpt>
      <trkpt lat="44.60642" lon="6.06026">
        <ele>1532.9594727</ele>
        <time>2013-09-26T11:58:23Z</time>
      </trkpt>
      <trkpt lat="44.60678" lon="6.0602">
        <ele>1531.0368652</ele>
        <time>2013-09-26T11:58:32Z</time>
      </trkpt>
      <trkpt lat="44.60683" lon="6.06019">
        <ele>1530.0754395</ele>
        <time>2013-09-26T11:58:34Z</time>
      </trkpt>
      <trkpt lat="44.60708" lon="6.06027">
        <ele>1529.5947266</ele>
        <time>2013-09-26T11:58:39Z</time>
      </trkpt>
      <trkpt lat="44.60732" lon="6.06046">
        <ele>1526.2302246</ele>
        <time>2013-09-26T11:58:47Z</time>
      </trkpt>
      <trkpt lat="44.60741" lon="6.0605">
        <ele>1523.8269043</ele>
        <time>2013-09-26T11:58:54Z</time>
      </trkpt>
      <trkpt lat="44.60777" lon="6.06071">
        <ele>1520.9431152</ele>
        <time>2013-09-26T11:59:02Z</time>
      </trkpt>
      <trkpt lat="44.60784" lon="6.06074">
        <ele>1519.5012207</ele>
        <time>2013-09-26T11:59:04Z</time>
      </trkpt>
      <trkpt lat="44.60792" lon="6.06077">
        <ele>1517.5783691</ele>
        <time>2013-09-26T11:59:07Z</time>
      </trkpt>
      <trkpt lat="44.60812" lon="6.06084">
        <ele>1515.6557617</ele>
        <time>2013-09-26T11:59:13Z</time>
      </trkpt>
      <trkpt lat="44.60818" lon="6.06087">
        <ele>1513.2524414</ele>
        <time>2013-09-26T11:59:17Z</time>
      </trkpt>
      <trkpt lat="44.60818" lon="6.06087">
        <ele>1511.8105469</ele>
        <time>2013-09-26T11:59:21Z</time>
      </trkpt>
      <trkpt lat="44.60861" lon="6.06113">
        <ele>1510.3684082</ele>
        <time>2013-09-26T11:59:29Z</time>
      </trkpt>
      <trkpt lat="44.60924" lon="6.06136">
        <ele>1508.4458008</ele>
        <time>2013-09-26T11:59:41Z</time>
      </trkpt>
      <trkpt lat="44.60921" lon="6.06183">
        <ele>1504.1201172</ele>
        <time>2013-09-26T11:59:50Z</time>
      </trkpt>
      <trkpt lat="44.60918" lon="6.06184">
        <ele>1504.1201172</ele>
        <time>2013-09-26T11:59:51Z</time>
      </trkpt>
      <trkpt lat="44.609" lon="6.06198">
        <ele>1501.236084</ele>
        <time>2013-09-26T11:59:57Z</time>
      </trkpt>
      <trkpt lat="44.60898" lon="6.06199">
        <ele>1501.236084</ele>
        <time>2013-09-26T11:59:58Z</time>
      </trkpt>
      <trkpt lat="44.60874" lon="6.06205">
        <ele>1497.390625</ele>
        <time>2013-09-26T12:00:05Z</time>
      </trkpt>
      <trkpt lat="44.60867" lon="6.06206">
        <ele>1496.9099121</ele>
        <time>2013-09-26T12:00:07Z</time>
      </trkpt>
      <trkpt lat="44.60845" lon="6.0621">
        <ele>1493.0646973</ele>
        <time>2013-09-26T12:00:13Z</time>
      </trkpt>
      <trkpt lat="44.60822" lon="6.06211">
        <ele>1490.661377</ele>
        <time>2013-09-26T12:00:18Z</time>
      </trkpt>
      <trkpt lat="44.60788" lon="6.06217">
        <ele>1486.8161621</ele>
        <time>2013-09-26T12:00:24Z</time>
      </trkpt>
      <trkpt lat="44.60768" lon="6.06218">
        <ele>1484.8937988</ele>
        <time>2013-09-26T12:00:28Z</time>
      </trkpt>
      <trkpt lat="44.60763" lon="6.06218">
        <ele>1484.4130859</ele>
        <time>2013-09-26T12:00:29Z</time>
      </trkpt>
      <trkpt lat="44.60722" lon="6.06221">
        <ele>1481.5288086</ele>
        <time>2013-09-26T12:00:38Z</time>
      </trkpt>
      <trkpt lat="44.60708" lon="6.06223">
        <ele>1480.0869141</ele>
        <time>2013-09-26T12:00:42Z</time>
      </trkpt>
      <trkpt lat="44.60688" lon="6.06237">
        <ele>1475.7609863</ele>
        <time>2013-09-26T12:00:50Z</time>
      </trkpt>
      <trkpt lat="44.60685" lon="6.06238">
        <ele>1475.7609863</ele>
        <time>2013-09-26T12:00:51Z</time>
      </trkpt>
      <trkpt lat="44.60667" lon="6.06239">
        <ele>1473.8383789</ele>
        <time>2013-09-26T12:00:55Z</time>
      </trkpt>
      <trkpt lat="44.60651" lon="6.06241">
        <ele>1471.4350586</ele>
        <time>2013-09-26T12:00:58Z</time>
      </trkpt>
      <trkpt lat="44.60602" lon="6.06251">
        <ele>1468.5512695</ele>
        <time>2013-09-26T12:01:10Z</time>
      </trkpt>
      <trkpt lat="44.6058" lon="6.06243">
        <ele>1465.6672363</ele>
        <time>2013-09-26T12:01:20Z</time>
      </trkpt>
      <trkpt lat="44.60573" lon="6.06226">
        <ele>1463.263916</ele>
        <time>2013-09-26T12:01:26Z</time>
      </trkpt>
      <trkpt lat="44.6056" lon="6.06201">
        <ele>1459.4187012</ele>
        <time>2013-09-26T12:01:34Z</time>
      </trkpt>
      <trkpt lat="44.60558" lon="6.06198">
        <ele>1459.4187012</ele>
        <time>2013-09-26T12:01:35Z</time>
      </trkpt>
      <trkpt lat="44.6054" lon="6.0618">
        <ele>1456.0539551</ele>
        <time>2013-09-26T12:01:42Z</time>
      </trkpt>
      <trkpt lat="44.60521" lon="6.06158">
        <ele>1452.6894531</ele>
        <time>2013-09-26T12:01:50Z</time>
      </trkpt>
      <trkpt lat="44.60498" lon="6.06156">
        <ele>1449.324707</ele>
        <time>2013-09-26T12:01:59Z</time>
      </trkpt>
      <trkpt lat="44.6049" lon="6.0616">
        <ele>1447.4020996</ele>
        <time>2013-09-26T12:02:09Z</time>
      </trkpt>
      <trkpt lat="44.60476" lon="6.06173">
        <ele>1445.4794922</ele>
        <time>2013-09-26T12:02:23Z</time>
      </trkpt>
      <trkpt lat="44.60462" lon="6.06184">
        <ele>1443.5568848</ele>
        <time>2013-09-26T12:02:25Z</time>
      </trkpt>
      <trkpt lat="44.60432" lon="6.06182">
        <ele>1440.6728516</ele>
        <time>2013-09-26T12:02:30Z</time>
      </trkpt>
      <trkpt lat="44.60408" lon="6.06184">
        <ele>1437.7890625</ele>
        <time>2013-09-26T12:02:35Z</time>
      </trkpt>
      <trkpt lat="44.604" lon="6.06186">
        <ele>1437.3083496</ele>
        <time>2013-09-26T12:02:37Z</time>
      </trkpt>
      <trkpt lat="44.60391" lon="6.06189">
        <ele>1435.8662109</ele>
        <time>2013-09-26T12:02:39Z</time>
      </trkpt>
      <trkpt lat="44.60383" lon="6.06191">
        <ele>1433.9436035</ele>
        <time>2013-09-26T12:02:41Z</time>
      </trkpt>
      <trkpt lat="44.60372" lon="6.06192">
        <ele>1432.501709</ele>
        <time>2013-09-26T12:02:44Z</time>
      </trkpt>
      <trkpt lat="44.60366" lon="6.06192">
        <ele>1431.0598145</ele>
        <time>2013-09-26T12:02:46Z</time>
      </trkpt>
      <trkpt lat="44.6035" lon="6.06188">
        <ele>1428.1757813</ele>
        <time>2013-09-26T12:02:51Z</time>
      </trkpt>
      <trkpt lat="44.60333" lon="6.06175">
        <ele>1424.3305664</ele>
        <time>2013-09-26T12:02:57Z</time>
      </trkpt>
      <trkpt lat="44.6033" lon="6.06173">
        <ele>1424.3305664</ele>
        <time>2013-09-26T12:02:58Z</time>
      </trkpt>
      <trkpt lat="44.60306" lon="6.0616">
        <ele>1420.4853516</ele>
        <time>2013-09-26T12:03:05Z</time>
      </trkpt>
      <trkpt lat="44.60301" lon="6.06158">
        <ele>1419.5239258</ele>
        <time>2013-09-26T12:03:06Z</time>
      </trkpt>
      <trkpt lat="44.60287" lon="6.06154">
        <ele>1418.0817871</ele>
        <time>2013-09-26T12:03:09Z</time>
      </trkpt>
      <trkpt lat="44.60266" lon="6.06151">
        <ele>1415.197998</ele>
        <time>2013-09-26T12:03:14Z</time>
      </trkpt>
      <trkpt lat="44.60257" lon="6.06153">
        <ele>1413.2753906</ele>
        <time>2013-09-26T12:03:16Z</time>
      </trkpt>
      <trkpt lat="44.6023" lon="6.06156">
        <ele>1410.3913574</ele>
        <time>2013-09-26T12:03:21Z</time>
      </trkpt>
      <trkpt lat="44.60205" lon="6.06156">
        <ele>1408.9494629</ele>
        <time>2013-09-26T12:03:26Z</time>
      </trkpt>
      <trkpt lat="44.60194" lon="6.06154">
        <ele>1407.5075684</ele>
        <time>2013-09-26T12:03:28Z</time>
      </trkpt>
      <trkpt lat="44.60189" lon="6.06154">
        <ele>1407.0268555</ele>
        <time>2013-09-26T12:03:29Z</time>
      </trkpt>
      <trkpt lat="44.60168" lon="6.06156">
        <ele>1406.0654297</ele>
        <time>2013-09-26T12:03:39Z</time>
      </trkpt>
      <trkpt lat="44.60168" lon="6.06156">
        <ele>1406.0654297</ele>
        <time>2013-09-26T12:04:27Z</time>
      </trkpt>
      <trkpt lat="44.60174" lon="6.06153">
        <ele>1406.0654297</ele>
        <time>2013-09-26T12:04:32Z</time>
      </trkpt>
      <trkpt lat="44.60195" lon="6.06155">
        <ele>1403.6621094</ele>
        <time>2013-09-26T12:04:36Z</time>
      </trkpt>
      <trkpt lat="44.60207" lon="6.06156">
        <ele>1403.6621094</ele>
        <time>2013-09-26T12:04:39Z</time>
      </trkpt>
      <trkpt lat="44.60226" lon="6.06207">
        <ele>1400.7780762</ele>
        <time>2013-09-26T12:05:27Z</time>
      </trkpt>
      <trkpt lat="44.60211" lon="6.06216">
        <ele>1397.8942871</ele>
        <time>2013-09-26T12:05:33Z</time>
      </trkpt>
      <trkpt lat="44.60219" lon="6.06187">
        <ele>1401.739502</ele>
        <time>2013-09-26T12:09:46Z</time>
      </trkpt>
      <trkpt lat="44.60208" lon="6.06174">
        <ele>1401.739502</ele>
        <time>2013-09-26T12:09:49Z</time>
      </trkpt>
      <trkpt lat="44.60194" lon="6.06168">
        <ele>1402.2199707</ele>
        <time>2013-09-26T12:09:59Z</time>
      </trkpt>
      <trkpt lat="44.60172" lon="6.0616">
        <ele>1404.1430664</ele>
        <time>2013-09-26T12:10:12Z</time>
      </trkpt>
      <trkpt lat="44.60158" lon="6.0615">
        <ele>1405.104248</ele>
        <time>2013-09-26T12:10:20Z</time>
      </trkpt>
      <trkpt lat="44.60136" lon="6.06138">
        <ele>1405.104248</ele>
        <time>2013-09-26T12:10:34Z</time>
      </trkpt>
      <trkpt lat="44.60108" lon="6.06119">
        <ele>1406.0654297</ele>
        <time>2013-09-26T12:10:49Z</time>
      </trkpt>
      <trkpt lat="44.60084" lon="6.06108">
        <ele>1406.5461426</ele>
        <time>2013-09-26T12:11:01Z</time>
      </trkpt>
      <trkpt lat="44.60049" lon="6.06108">
        <ele>1405.5849609</ele>
        <time>2013-09-26T12:11:11Z</time>
      </trkpt>
      <trkpt lat="44.60006" lon="6.06107">
        <ele>1407.9882813</ele>
        <time>2013-09-26T12:11:24Z</time>
      </trkpt>
      <trkpt lat="44.59977" lon="6.06081">
        <ele>1407.9882813</ele>
        <time>2013-09-26T12:11:37Z</time>
      </trkpt>
      <trkpt lat="44.59951" lon="6.06052">
        <ele>1406.0654297</ele>
        <time>2013-09-26T12:11:46Z</time>
      </trkpt>
      <trkpt lat="44.59941" lon="6.06036">
        <ele>1405.5849609</ele>
        <time>2013-09-26T12:11:49Z</time>
      </trkpt>
      <trkpt lat="44.59918" lon="6.05997">
        <ele>1402.2199707</ele>
        <time>2013-09-26T12:11:54Z</time>
      </trkpt>
      <trkpt lat="44.59898" lon="6.0596">
        <ele>1399.8168945</ele>
        <time>2013-09-26T12:11:58Z</time>
      </trkpt>
      <trkpt lat="44.59885" lon="6.05939">
        <ele>1395.4909668</ele>
        <time>2013-09-26T12:12:00Z</time>
      </trkpt>
      <trkpt lat="44.59879" lon="6.05929">
        <ele>1395.4909668</ele>
        <time>2013-09-26T12:12:01Z</time>
      </trkpt>
      <trkpt lat="44.59864" lon="6.05909">
        <ele>1395.4909668</ele>
        <time>2013-09-26T12:12:03Z</time>
      </trkpt>
      <trkpt lat="44.59849" lon="6.05895">
        <ele>1393.5683594</ele>
        <time>2013-09-26T12:12:05Z</time>
      </trkpt>
      <trkpt lat="44.59824" lon="6.05877">
        <ele>1390.6843262</ele>
        <time>2013-09-26T12:12:08Z</time>
      </trkpt>
      <trkpt lat="44.59787" lon="6.05853">
        <ele>1394.0490723</ele>
        <time>2013-09-26T12:12:14Z</time>
      </trkpt>
      <trkpt lat="44.59783" lon="6.05849">
        <ele>1394.0490723</ele>
        <time>2013-09-26T12:12:15Z</time>
      </trkpt>
      <trkpt lat="44.59734" lon="6.05814">
        <ele>1393.5683594</ele>
        <time>2013-09-26T12:12:29Z</time>
      </trkpt>
      <trkpt lat="44.5969" lon="6.05806">
        <ele>1391.645752</ele>
        <time>2013-09-26T12:12:38Z</time>
      </trkpt>
      <trkpt lat="44.59659" lon="6.05783">
        <ele>1388.7619629</ele>
        <time>2013-09-26T12:12:44Z</time>
      </trkpt>
      <trkpt lat="44.59638" lon="6.05749">
        <ele>1386.3583984</ele>
        <time>2013-09-26T12:12:50Z</time>
      </trkpt>
      <trkpt lat="44.59626" lon="6.05758">
        <ele>1383.9550781</ele>
        <time>2013-09-26T12:12:56Z</time>
      </trkpt>
      <trkpt lat="44.59631" lon="6.05774">
        <ele>1381.5517578</ele>
        <time>2013-09-26T12:12:59Z</time>
      </trkpt>
      <trkpt lat="44.59635" lon="6.05785">
        <ele>1379.6291504</ele>
        <time>2013-09-26T12:13:01Z</time>
      </trkpt>
      <trkpt lat="44.59637" lon="6.05796">
        <ele>1377.706543</ele>
        <time>2013-09-26T12:13:03Z</time>
      </trkpt>
      <trkpt lat="44.59645" lon="6.0582">
        <ele>1374.342041</ele>
        <time>2013-09-26T12:13:07Z</time>
      </trkpt>
      <trkpt lat="44.59659" lon="6.05852">
        <ele>1371.9384766</ele>
        <time>2013-09-26T12:13:14Z</time>
      </trkpt>
      <trkpt lat="44.5966" lon="6.05854">
        <ele>1371.9384766</ele>
        <time>2013-09-26T12:13:15Z</time>
      </trkpt>
      <trkpt lat="44.59648" lon="6.05863">
        <ele>1370.0158691</ele>
        <time>2013-09-26T12:13:23Z</time>
      </trkpt>
      <trkpt lat="44.59642" lon="6.05852">
        <ele>1369.0546875</ele>
        <time>2013-09-26T12:13:28Z</time>
      </trkpt>
      <trkpt lat="44.59635" lon="6.05845">
        <ele>1369.0546875</ele>
        <time>2013-09-26T12:13:32Z</time>
      </trkpt>
      <trkpt lat="44.59616" lon="6.05815">
        <ele>1364.7287598</ele>
        <time>2013-09-26T12:34:18Z</time>
      </trkpt>
      <trkpt lat="44.59656" lon="6.05864">
        <ele>1365.2094727</ele>
        <time>2013-09-26T12:34:30Z</time>
      </trkpt>
      <trkpt lat="44.59664" lon="6.05866">
        <ele>1365.6901855</ele>
        <time>2013-09-26T12:34:37Z</time>
      </trkpt>
      <trkpt lat="44.59676" lon="6.05907">
        <ele>1363.2868652</ele>
        <time>2013-09-26T12:34:42Z</time>
      </trkpt>
      <trkpt lat="44.59691" lon="6.05938">
        <ele>1358.9609375</ele>
        <time>2013-09-26T12:34:46Z</time>
      </trkpt>
      <trkpt lat="44.59696" lon="6.05947">
        <ele>1358.9609375</ele>
        <time>2013-09-26T12:34:47Z</time>
      </trkpt>
      <trkpt lat="44.59709" lon="6.05966">
        <ele>1356.0769043</ele>
        <time>2013-09-26T12:34:49Z</time>
      </trkpt>
      <trkpt lat="44.59724" lon="6.05983">
        <ele>1353.673584</ele>
        <time>2013-09-26T12:34:51Z</time>
      </trkpt>
      <trkpt lat="44.59737" lon="6.06">
        <ele>1351.7509766</ele>
        <time>2013-09-26T12:34:53Z</time>
      </trkpt>
      <trkpt lat="44.59767" lon="6.06058">
        <ele>1349.3476563</ele>
        <time>2013-09-26T12:35:01Z</time>
      </trkpt>
      <trkpt lat="44.59773" lon="6.06081">
        <ele>1348.8669434</ele>
        <time>2013-09-26T12:35:05Z</time>
      </trkpt>
      <trkpt lat="44.59779" lon="6.06102">
        <ele>1346.9443359</ele>
        <time>2013-09-26T12:35:08Z</time>
      </trkpt>
      <trkpt lat="44.59787" lon="6.06119">
        <ele>1347.4250488</ele>
        <time>2013-09-26T12:35:12Z</time>
      </trkpt>
      <trkpt lat="44.59781" lon="6.0613">
        <ele>1346.4638672</ele>
        <time>2013-09-26T12:35:15Z</time>
      </trkpt>
      <trkpt lat="44.59779" lon="6.06127">
        <ele>1345.9831543</ele>
        <time>2013-09-26T12:35:17Z</time>
      </trkpt>
      <trkpt lat="44.59749" lon="6.06051">
        <ele>1343.579834</ele>
        <time>2013-09-26T12:35:30Z</time>
      </trkpt>
      <trkpt lat="44.59738" lon="6.06039">
        <ele>1343.0991211</ele>
        <time>2013-09-26T12:35:33Z</time>
      </trkpt>
      <trkpt lat="44.59724" lon="6.06025">
        <ele>1341.6572266</ele>
        <time>2013-09-26T12:35:38Z</time>
      </trkpt>
      <trkpt lat="44.59662" lon="6.06002">
        <ele>1337.8117676</ele>
        <time>2013-09-26T12:35:45Z</time>
      </trkpt>
      <trkpt lat="44.59638" lon="6.06001">
        <ele>1336.369873</ele>
        <time>2013-09-26T12:35:47Z</time>
      </trkpt>
      <trkpt lat="44.59616" lon="6.06004">
        <ele>1334.4472656</ele>
        <time>2013-09-26T12:35:49Z</time>
      </trkpt>
      <trkpt lat="44.59589" lon="6.0601">
        <ele>1333.005127</ele>
        <time>2013-09-26T12:35:52Z</time>
      </trkpt>
      <trkpt lat="44.5958" lon="6.0601">
        <ele>1331.5632324</ele>
        <time>2013-09-26T12:35:53Z</time>
      </trkpt>
      <trkpt lat="44.59557" lon="6.05995">
        <ele>1330.1213379</ele>
        <time>2013-09-26T12:35:56Z</time>
      </trkpt>
      <trkpt lat="44.59539" lon="6.05983">
        <ele>1326.7568359</ele>
        <time>2013-09-26T12:35:58Z</time>
      </trkpt>
      <trkpt lat="44.59529" lon="6.05978">
        <ele>1326.7568359</ele>
        <time>2013-09-26T12:35:59Z</time>
      </trkpt>
      <trkpt lat="44.59479" lon="6.05945">
        <ele>1322.911377</ele>
        <time>2013-09-26T12:36:04Z</time>
      </trkpt>
      <trkpt lat="44.5947" lon="6.05938">
        <ele>1322.911377</ele>
        <time>2013-09-26T12:36:05Z</time>
      </trkpt>
      <trkpt lat="44.59448" lon="6.05923">
        <ele>1320.0273438</ele>
        <time>2013-09-26T12:36:07Z</time>
      </trkpt>
      <trkpt lat="44.59436" lon="6.05915">
        <ele>1320.0273438</ele>
        <time>2013-09-26T12:36:08Z</time>
      </trkpt>
      <trkpt lat="44.59412" lon="6.05906">
        <ele>1318.1047363</ele>
        <time>2013-09-26T12:36:10Z</time>
      </trkpt>
      <trkpt lat="44.59389" lon="6.05896">
        <ele>1315.7016602</ele>
        <time>2013-09-26T12:36:12Z</time>
      </trkpt>
      <trkpt lat="44.59359" lon="6.05882">
        <ele>1313.2983398</ele>
        <time>2013-09-26T12:36:15Z</time>
      </trkpt>
      <trkpt lat="44.59338" lon="6.05879">
        <ele>1313.2983398</ele>
        <time>2013-09-26T12:36:17Z</time>
      </trkpt>
      <trkpt lat="44.59318" lon="6.05879">
        <ele>1311.3757324</ele>
        <time>2013-09-26T12:36:19Z</time>
      </trkpt>
      <trkpt lat="44.59296" lon="6.05879">
        <ele>1308.0112305</ele>
        <time>2013-09-26T12:36:21Z</time>
      </trkpt>
      <trkpt lat="44.59285" lon="6.05879">
        <ele>1308.0112305</ele>
        <time>2013-09-26T12:36:22Z</time>
      </trkpt>
      <trkpt lat="44.59248" lon="6.05883">
        <ele>1305.607666</ele>
        <time>2013-09-26T12:36:27Z</time>
      </trkpt>
      <trkpt lat="44.59246" lon="6.05895">
        <ele>1303.6850586</ele>
        <time>2013-09-26T12:36:33Z</time>
      </trkpt>
      <trkpt lat="44.59267" lon="6.05906">
        <ele>1301.7624512</ele>
        <time>2013-09-26T12:36:36Z</time>
      </trkpt>
      <trkpt lat="44.59313" lon="6.05932">
        <ele>1296.9558105</ele>
        <time>2013-09-26T12:36:42Z</time>
      </trkpt>
      <trkpt lat="44.59324" lon="6.05937">
        <ele>1296.9558105</ele>
        <time>2013-09-26T12:36:43Z</time>
      </trkpt>
      <trkpt lat="44.59341" lon="6.05943">
        <ele>1295.513916</ele>
        <time>2013-09-26T12:36:45Z</time>
      </trkpt>
      <trkpt lat="44.59348" lon="6.05946">
        <ele>1294.5524902</ele>
        <time>2013-09-26T12:36:46Z</time>
      </trkpt>
      <trkpt lat="44.59362" lon="6.05948">
        <ele>1293.5913086</ele>
        <time>2013-09-26T12:36:48Z</time>
      </trkpt>
      <trkpt lat="44.59364" lon="6.05969">
        <ele>1291.668457</ele>
        <time>2013-09-26T12:36:55Z</time>
      </trkpt>
      <trkpt lat="44.59358" lon="6.05969">
        <ele>1291.668457</ele>
        <time>2013-09-26T12:36:56Z</time>
      </trkpt>
      <trkpt lat="44.59337" lon="6.05969">
        <ele>1289.7458496</ele>
        <time>2013-09-26T12:36:59Z</time>
      </trkpt>
      <trkpt lat="44.59293" lon="6.05979">
        <ele>1285.9006348</ele>
        <time>2013-09-26T12:37:04Z</time>
      </trkpt>
      <trkpt lat="44.59274" lon="6.05984">
        <ele>1283.9780273</ele>
        <time>2013-09-26T12:37:06Z</time>
      </trkpt>
      <trkpt lat="44.59256" lon="6.05984">
        <ele>1282.5361328</ele>
        <time>2013-09-26T12:37:08Z</time>
      </trkpt>
      <trkpt lat="44.5924" lon="6.05977">
        <ele>1281.574707</ele>
        <time>2013-09-26T12:37:10Z</time>
      </trkpt>
      <trkpt lat="44.59213" lon="6.05962">
        <ele>1278.690918</ele>
        <time>2013-09-26T12:37:13Z</time>
      </trkpt>
      <trkpt lat="44.59194" lon="6.05951">
        <ele>1277.2490234</ele>
        <time>2013-09-26T12:37:15Z</time>
      </trkpt>
      <trkpt lat="44.5915" lon="6.05928">
        <ele>1271.4807129</ele>
        <time>2013-09-26T12:37:19Z</time>
      </trkpt>
      <trkpt lat="44.5914" lon="6.05922">
        <ele>1271.9614258</ele>
        <time>2013-09-26T12:37:20Z</time>
      </trkpt>
      <trkpt lat="44.59123" lon="6.05911">
        <ele>1270.5195313</ele>
        <time>2013-09-26T12:37:22Z</time>
      </trkpt>
      <trkpt lat="44.5911" lon="6.05901">
        <ele>1268.5969238</ele>
        <time>2013-09-26T12:37:24Z</time>
      </trkpt>
      <trkpt lat="44.59097" lon="6.05896">
        <ele>1268.5969238</ele>
        <time>2013-09-26T12:37:26Z</time>
      </trkpt>
      <trkpt lat="44.59095" lon="6.05912">
        <ele>1268.1162109</ele>
        <time>2013-09-26T12:37:31Z</time>
      </trkpt>
      <trkpt lat="44.59098" lon="6.05917">
        <ele>1267.1550293</ele>
        <time>2013-09-26T12:37:33Z</time>
      </trkpt>
      <trkpt lat="44.59126" lon="6.05948">
        <ele>1264.2709961</ele>
        <time>2013-09-26T12:37:38Z</time>
      </trkpt>
      <trkpt lat="44.59138" lon="6.05965">
        <ele>1262.3483887</ele>
        <time>2013-09-26T12:37:40Z</time>
      </trkpt>
      <trkpt lat="44.59162" lon="6.05996">
        <ele>1257.541748</ele>
        <time>2013-09-26T12:37:43Z</time>
      </trkpt>
      <trkpt lat="44.59177" lon="6.0602">
        <ele>1256.0996094</ele>
        <time>2013-09-26T12:37:45Z</time>
      </trkpt>
      <trkpt lat="44.59192" lon="6.06043">
        <ele>1254.6577148</ele>
        <time>2013-09-26T12:37:47Z</time>
      </trkpt>
      <trkpt lat="44.59205" lon="6.06061">
        <ele>1252.2543945</ele>
        <time>2013-09-26T12:37:49Z</time>
      </trkpt>
      <trkpt lat="44.59228" lon="6.06084">
        <ele>1250.8125</ele>
        <time>2013-09-26T12:37:52Z</time>
      </trkpt>
      <trkpt lat="44.59244" lon="6.06093">
        <ele>1249.3706055</ele>
        <time>2013-09-26T12:37:54Z</time>
      </trkpt>
      <trkpt lat="44.5925" lon="6.06096">
        <ele>1248.8898926</ele>
        <time>2013-09-26T12:37:55Z</time>
      </trkpt>
      <trkpt lat="44.59263" lon="6.06106">
        <ele>1247.9287109</ele>
        <time>2013-09-26T12:37:57Z</time>
      </trkpt>
      <trkpt lat="44.59274" lon="6.06127">
        <ele>1246.0061035</ele>
        <time>2013-09-26T12:37:59Z</time>
      </trkpt>
      <trkpt lat="44.5929" lon="6.06173">
        <ele>1242.6413574</ele>
        <time>2013-09-26T12:38:03Z</time>
      </trkpt>
      <trkpt lat="44.59294" lon="6.06185">
        <ele>1242.6413574</ele>
        <time>2013-09-26T12:38:04Z</time>
      </trkpt>
      <trkpt lat="44.59316" lon="6.06247">
        <ele>1239.7573242</ele>
        <time>2013-09-26T12:38:09Z</time>
      </trkpt>
      <trkpt lat="44.59323" lon="6.06267">
        <ele>1237.3540039</ele>
        <time>2013-09-26T12:38:12Z</time>
      </trkpt>
      <trkpt lat="44.59312" lon="6.06299">
        <ele>1235.4313965</ele>
        <time>2013-09-26T12:38:18Z</time>
      </trkpt>
      <trkpt lat="44.59308" lon="6.06293">
        <ele>1235.4313965</ele>
        <time>2013-09-26T12:38:19Z</time>
      </trkpt>
      <trkpt lat="44.59277" lon="6.06275">
        <ele>1234.9509277</ele>
        <time>2013-09-26T12:38:23Z</time>
      </trkpt>
      <trkpt lat="44.59238" lon="6.06272">
        <ele>1233.0280762</ele>
        <time>2013-09-26T12:38:29Z</time>
      </trkpt>
      <trkpt lat="44.59214" lon="6.06256">
        <ele>1233.5087891</ele>
        <time>2013-09-26T12:38:33Z</time>
      </trkpt>
      <trkpt lat="44.59178" lon="6.06228">
        <ele>1235.4313965</ele>
        <time>2013-09-26T12:38:41Z</time>
      </trkpt>
      <trkpt lat="44.59121" lon="6.06171">
        <ele>1233.989502</ele>
        <time>2013-09-26T12:38:54Z</time>
      </trkpt>
      <trkpt lat="44.59108" lon="6.0616">
        <ele>1234.9509277</ele>
        <time>2013-09-26T12:38:57Z</time>
      </trkpt>
      <trkpt lat="44.59091" lon="6.06149">
        <ele>1235.9121094</ele>
        <time>2013-09-26T12:39:01Z</time>
      </trkpt>
      <trkpt lat="44.59074" lon="6.06136">
        <ele>1235.4313965</ele>
        <time>2013-09-26T12:39:05Z</time>
      </trkpt>
      <trkpt lat="44.59055" lon="6.06125">
        <ele>1233.5087891</ele>
        <time>2013-09-26T12:39:09Z</time>
      </trkpt>
      <trkpt lat="44.59036" lon="6.06114">
        <ele>1231.5861816</ele>
        <time>2013-09-26T12:39:12Z</time>
      </trkpt>
      <trkpt lat="44.59011" lon="6.061">
        <ele>1229.1828613</ele>
        <time>2013-09-26T12:39:15Z</time>
      </trkpt>
      <trkpt lat="44.58993" lon="6.06088">
        <ele>1224.3762207</ele>
        <time>2013-09-26T12:39:17Z</time>
      </trkpt>
      <trkpt lat="44.58983" lon="6.06082">
        <ele>1224.3762207</ele>
        <time>2013-09-26T12:39:18Z</time>
      </trkpt>
      <trkpt lat="44.58963" lon="6.06066">
        <ele>1222.9343262</ele>
        <time>2013-09-26T12:39:20Z</time>
      </trkpt>
      <trkpt lat="44.5891" lon="6.06019">
        <ele>1219.5698242</ele>
        <time>2013-09-26T12:39:25Z</time>
      </trkpt>
      <trkpt lat="44.58877" lon="6.05993">
        <ele>1217.6469727</ele>
        <time>2013-09-26T12:39:29Z</time>
      </trkpt>
      <trkpt lat="44.58864" lon="6.05962">
        <ele>1215.2438965</ele>
        <time>2013-09-26T12:39:32Z</time>
      </trkpt>
      <trkpt lat="44.58858" lon="6.05945">
        <ele>1212.8405762</ele>
        <time>2013-09-26T12:39:34Z</time>
      </trkpt>
      <trkpt lat="44.58845" lon="6.05925">
        <ele>1211.8791504</ele>
        <time>2013-09-26T12:39:36Z</time>
      </trkpt>
      <trkpt lat="44.5883" lon="6.05915">
        <ele>1209.9562988</ele>
        <time>2013-09-26T12:39:38Z</time>
      </trkpt>
      <trkpt lat="44.58813" lon="6.05913">
        <ele>1205.6306152</ele>
        <time>2013-09-26T12:39:40Z</time>
      </trkpt>
      <trkpt lat="44.58804" lon="6.05913">
        <ele>1205.6306152</ele>
        <time>2013-09-26T12:39:41Z</time>
      </trkpt>
      <trkpt lat="44.58782" lon="6.05909">
        <ele>1203.7080078</ele>
        <time>2013-09-26T12:39:43Z</time>
      </trkpt>
      <trkpt lat="44.58763" lon="6.05907">
        <ele>1202.746582</ele>
        <time>2013-09-26T12:39:45Z</time>
      </trkpt>
      <trkpt lat="44.58735" lon="6.05909">
        <ele>1200.3435059</ele>
        <time>2013-09-26T12:39:48Z</time>
      </trkpt>
      <trkpt lat="44.58718" lon="6.05905">
        <ele>1200.3435059</ele>
        <time>2013-09-26T12:39:51Z</time>
      </trkpt>
      <trkpt lat="44.5871" lon="6.05868">
        <ele>1197.4594727</ele>
        <time>2013-09-26T12:39:58Z</time>
      </trkpt>
      <trkpt lat="44.58703" lon="6.0583">
        <ele>1193.6140137</ele>
        <time>2013-09-26T12:40:01Z</time>
      </trkpt>
      <trkpt lat="44.58693" lon="6.05801">
        <ele>1192.1721191</ele>
        <time>2013-09-26T12:40:03Z</time>
      </trkpt>
      <trkpt lat="44.58665" lon="6.05772">
        <ele>1190.7299805</ele>
        <time>2013-09-26T12:40:06Z</time>
      </trkpt>
      <trkpt lat="44.58661" lon="6.05772">
        <ele>1189.2880859</ele>
        <time>2013-09-26T12:40:07Z</time>
      </trkpt>
      <trkpt lat="44.58647" lon="6.05797">
        <ele>1185.4428711</ele>
        <time>2013-09-26T12:40:14Z</time>
      </trkpt>
      <trkpt lat="44.58647" lon="6.05816">
        <ele>1183.0395508</ele>
        <time>2013-09-26T12:40:16Z</time>
      </trkpt>
      <trkpt lat="44.58647" lon="6.05825">
        <ele>1180.1557617</ele>
        <time>2013-09-26T12:40:17Z</time>
      </trkpt>
      <trkpt lat="44.58654" lon="6.05851">
        <ele>1179.1940918</ele>
        <time>2013-09-26T12:40:20Z</time>
      </trkpt>
      <trkpt lat="44.58663" lon="6.05883">
        <ele>1177.2717285</ele>
        <time>2013-09-26T12:40:22Z</time>
      </trkpt>
      <trkpt lat="44.58673" lon="6.05924">
        <ele>1174.3876953</ele>
        <time>2013-09-26T12:40:25Z</time>
      </trkpt>
      <trkpt lat="44.58678" lon="6.0594">
        <ele>1175.348877</ele>
        <time>2013-09-26T12:40:27Z</time>
      </trkpt>
      <trkpt lat="44.58684" lon="6.05956">
        <ele>1177.2717285</ele>
        <time>2013-09-26T12:40:29Z</time>
      </trkpt>
      <trkpt lat="44.587" lon="6.05982">
        <ele>1179.1940918</ele>
        <time>2013-09-26T12:40:34Z</time>
      </trkpt>
      <trkpt lat="44.58711" lon="6.0599">
        <ele>1178.2329102</ele>
        <time>2013-09-26T12:40:37Z</time>
      </trkpt>
      <trkpt lat="44.58725" lon="6.06">
        <ele>1177.7521973</ele>
        <time>2013-09-26T12:40:40Z</time>
      </trkpt>
      <trkpt lat="44.58734" lon="6.06006">
        <ele>1179.1940918</ele>
        <time>2013-09-26T12:40:47Z</time>
      </trkpt>
      <trkpt lat="44.58734" lon="6.06006">
        <ele>1179.1940918</ele>
        <time>2013-09-26T12:40:58Z</time>
      </trkpt>
      <trkpt lat="44.58756" lon="6.0603">
        <ele>1180.1557617</ele>
        <time>2013-09-26T12:41:11Z</time>
      </trkpt>
      <trkpt lat="44.58787" lon="6.06063">
        <ele>1181.1171875</ele>
        <time>2013-09-26T12:41:24Z</time>
      </trkpt>
      <trkpt lat="44.58817" lon="6.06102">
        <ele>1182.0783691</ele>
        <time>2013-09-26T12:41:36Z</time>
      </trkpt>
      <trkpt lat="44.58821" lon="6.06125">
        <ele>1181.1171875</ele>
        <time>2013-09-26T12:41:40Z</time>
      </trkpt>
      <trkpt lat="44.58828" lon="6.06172">
        <ele>1179.1940918</ele>
        <time>2013-09-26T12:41:46Z</time>
      </trkpt>
      <trkpt lat="44.58833" lon="6.06193">
        <ele>1177.2717285</ele>
        <time>2013-09-26T12:41:48Z</time>
      </trkpt>
      <trkpt lat="44.58838" lon="6.06218">
        <ele>1173.4265137</ele>
        <time>2013-09-26T12:41:50Z</time>
      </trkpt>
      <trkpt lat="44.58839" lon="6.06229">
        <ele>1173.4265137</ele>
        <time>2013-09-26T12:41:51Z</time>
      </trkpt>
      <trkpt lat="44.58841" lon="6.0624">
        <ele>1171.984375</ele>
        <time>2013-09-26T12:41:52Z</time>
      </trkpt>
      <trkpt lat="44.5884" lon="6.06272">
        <ele>1171.5036621</ele>
        <time>2013-09-26T12:41:54Z</time>
      </trkpt>
      <trkpt lat="44.5884" lon="6.0628">
        <ele>1171.984375</ele>
        <time>2013-09-26T12:42:01Z</time>
      </trkpt>
      <trkpt lat="44.5884" lon="6.0628">
        <ele>1171.984375</ele>
        <time>2013-09-26T12:42:17Z</time>
      </trkpt>
      <trkpt lat="44.5884" lon="6.0628">
        <ele>1172.9458008</ele>
        <time>2013-09-26T12:42:36Z</time>
      </trkpt>
      <trkpt lat="44.5884" lon="6.0628">
        <ele>1172.9458008</ele>
        <time>2013-09-26T12:42:48Z</time>
      </trkpt>
      <trkpt lat="44.5884" lon="6.06272">
        <ele>1172.9458008</ele>
        <time>2013-09-26T12:42:50Z</time>
      </trkpt>
      <trkpt lat="44.58804" lon="6.06194">
        <ele>1173.4265137</ele>
        <time>2013-09-26T12:43:04Z</time>
      </trkpt>
      <trkpt lat="44.58782" lon="6.06136">
        <ele>1173.9069824</ele>
        <time>2013-09-26T12:43:17Z</time>
      </trkpt>
      <trkpt lat="44.58778" lon="6.06119">
        <ele>1174.3876953</ele>
        <time>2013-09-26T12:43:21Z</time>
      </trkpt>
      <trkpt lat="44.58719" lon="6.06058">
        <ele>1175.348877</ele>
        <time>2013-09-26T12:43:37Z</time>
      </trkpt>
      <trkpt lat="44.58689" lon="6.06035">
        <ele>1175.8295898</ele>
        <time>2013-09-26T12:43:50Z</time>
      </trkpt>
      <trkpt lat="44.58675" lon="6.06">
        <ele>1176.3103027</ele>
        <time>2013-09-26T12:44:02Z</time>
      </trkpt>
      <trkpt lat="44.58637" lon="6.05937">
        <ele>1176.3103027</ele>
        <time>2013-09-26T12:44:15Z</time>
      </trkpt>
      <trkpt lat="44.58602" lon="6.05907">
        <ele>1177.2717285</ele>
        <time>2013-09-26T12:44:25Z</time>
      </trkpt>
      <trkpt lat="44.58583" lon="6.05845">
        <ele>1176.7910156</ele>
        <time>2013-09-26T12:44:37Z</time>
      </trkpt>
      <trkpt lat="44.58572" lon="6.05819">
        <ele>1177.2717285</ele>
        <time>2013-09-26T12:44:44Z</time>
      </trkpt>
      <trkpt lat="44.58514" lon="6.05821">
        <ele>1177.7521973</ele>
        <time>2013-09-26T12:44:56Z</time>
      </trkpt>
      <trkpt lat="44.58501" lon="6.05802">
        <ele>1177.7521973</ele>
        <time>2013-09-26T12:45:06Z</time>
      </trkpt>
      <trkpt lat="44.58489" lon="6.05787">
        <ele>1177.7521973</ele>
        <time>2013-09-26T12:45:18Z</time>
      </trkpt>
      <trkpt lat="44.58489" lon="6.05787">
        <ele>1177.7521973</ele>
        <time>2013-09-26T12:45:19Z</time>
      </trkpt>
      <trkpt lat="44.58456" lon="6.05744">
        <ele>1177.7521973</ele>
        <time>2013-09-26T12:45:31Z</time>
      </trkpt>
      <trkpt lat="44.58435" lon="6.05728">
        <ele>1174.8684082</ele>
        <time>2013-09-26T12:45:41Z</time>
      </trkpt>
      <trkpt lat="44.5842" lon="6.05721">
        <ele>1171.5036621</ele>
        <time>2013-09-26T12:45:50Z</time>
      </trkpt>
      <trkpt lat="44.58397" lon="6.05679">
        <ele>1169.5812988</ele>
        <time>2013-09-26T12:45:58Z</time>
      </trkpt>
      <trkpt lat="44.5836" lon="6.05645">
        <ele>1166.6972656</ele>
        <time>2013-09-26T12:46:09Z</time>
      </trkpt>
      <trkpt lat="44.58353" lon="6.05618">
        <ele>1165.736084</ele>
        <time>2013-09-26T12:46:14Z</time>
      </trkpt>
      <trkpt lat="44.58347" lon="6.0559">
        <ele>1163.3325195</ele>
        <time>2013-09-26T12:46:20Z</time>
      </trkpt>
      <trkpt lat="44.58328" lon="6.05578">
        <ele>1161.4099121</ele>
        <time>2013-09-26T12:46:28Z</time>
      </trkpt>
      <trkpt lat="44.58323" lon="6.05576">
        <ele>1159.0065918</ele>
        <time>2013-09-26T12:46:35Z</time>
      </trkpt>
      <trkpt lat="44.58315" lon="6.05568">
        <ele>1156.6032715</ele>
        <time>2013-09-26T12:46:40Z</time>
      </trkpt>
      <trkpt lat="44.58265" lon="6.05528">
        <ele>1153.7194824</ele>
        <time>2013-09-26T12:46:50Z</time>
      </trkpt>
      <trkpt lat="44.58248" lon="6.05511">
        <ele>1150.3549805</ele>
        <time>2013-09-26T12:47:00Z</time>
      </trkpt>
      <trkpt lat="44.58251" lon="6.05503">
        <ele>1150.3549805</ele>
        <time>2013-09-26T12:47:01Z</time>
      </trkpt>
      <trkpt lat="44.58249" lon="6.05499">
        <ele>1149.8742676</ele>
        <time>2013-09-26T12:47:03Z</time>
      </trkpt>
      <trkpt lat="44.58218" lon="6.05477">
        <ele>1149.3935547</ele>
        <time>2013-09-26T12:47:15Z</time>
      </trkpt>
      <trkpt lat="44.58214" lon="6.05483">
        <ele>1148.4321289</ele>
        <time>2013-09-26T12:47:26Z</time>
      </trkpt>
      <trkpt lat="44.58213" lon="6.05494">
        <ele>1145.0673828</ele>
        <time>2013-09-26T12:47:40Z</time>
      </trkpt>
      <trkpt lat="44.58197" lon="6.0546">
        <ele>1145.0673828</ele>
        <time>2013-09-26T12:47:41Z</time>
      </trkpt>
      <trkpt lat="44.5817" lon="6.05432">
        <ele>1143.1447754</ele>
        <time>2013-09-26T12:47:47Z</time>
      </trkpt>
      <trkpt lat="44.58169" lon="6.05433">
        <ele>1143.1447754</ele>
        <time>2013-09-26T12:47:50Z</time>
      </trkpt>
      <trkpt lat="44.58174" lon="6.05435">
        <ele>1141.222168</ele>
        <time>2013-09-26T12:47:54Z</time>
      </trkpt>
      <trkpt lat="44.58168" lon="6.05453">
        <ele>1140.7414551</ele>
        <time>2013-09-26T12:47:57Z</time>
      </trkpt>
      <trkpt lat="44.58168" lon="6.05455">
        <ele>1140.2609863</ele>
        <time>2013-09-26T12:48:00Z</time>
      </trkpt>
      <trkpt lat="44.58158" lon="6.05498">
        <ele>1138.8190918</ele>
        <time>2013-09-26T12:48:04Z</time>
      </trkpt>
      <trkpt lat="44.58154" lon="6.05494">
        <ele>1136.8962402</ele>
        <time>2013-09-26T12:48:13Z</time>
      </trkpt>
      <trkpt lat="44.58173" lon="6.05445">
        <ele>1135.4543457</ele>
        <time>2013-09-26T12:48:18Z</time>
      </trkpt>
      <trkpt lat="44.58129" lon="6.05472">
        <ele>1133.0510254</ele>
        <time>2013-09-26T12:48:24Z</time>
      </trkpt>
      <trkpt lat="44.58089" lon="6.05452">
        <ele>1131.6088867</ele>
        <time>2013-09-26T12:48:32Z</time>
      </trkpt>
      <trkpt lat="44.58084" lon="6.0545">
        <ele>1128.7250977</ele>
        <time>2013-09-26T12:48:41Z</time>
      </trkpt>
      <trkpt lat="44.5806" lon="6.0544">
        <ele>1127.7636719</ele>
        <time>2013-09-26T12:48:44Z</time>
      </trkpt>
      <trkpt lat="44.58059" lon="6.0544">
        <ele>1127.7636719</ele>
        <time>2013-09-26T12:49:01Z</time>
      </trkpt>
      <trkpt lat="44.58059" lon="6.0544">
        <ele>1127.7636719</ele>
        <time>2013-09-26T12:49:12Z</time>
      </trkpt>
      <trkpt lat="44.58005" lon="6.05499">
        <ele>1125.8410645</ele>
        <time>2013-09-26T12:49:15Z</time>
      </trkpt>
      <trkpt lat="44.58019" lon="6.05427">
        <ele>1122.9572754</ele>
        <time>2013-09-26T12:49:27Z</time>
      </trkpt>
      <trkpt lat="44.58018" lon="6.05427">
        <ele>1122.4765625</ele>
        <time>2013-09-26T12:49:29Z</time>
      </trkpt>
      <trkpt lat="44.58013" lon="6.05425">
        <ele>1121.034668</ele>
        <time>2013-09-26T12:49:34Z</time>
      </trkpt>
      <trkpt lat="44.58017" lon="6.05426">
        <ele>1120.0732422</ele>
        <time>2013-09-26T12:49:39Z</time>
      </trkpt>
      <trkpt lat="44.58025" lon="6.05429">
        <ele>1118.1506348</ele>
        <time>2013-09-26T12:49:47Z</time>
      </trkpt>
      <trkpt lat="44.58032" lon="6.05431">
        <ele>1115.2666016</ele>
        <time>2013-09-26T12:49:58Z</time>
      </trkpt>
      <trkpt lat="44.58029" lon="6.05431">
        <ele>1113.3439941</ele>
        <time>2013-09-26T12:50:09Z</time>
      </trkpt>
      <trkpt lat="44.58029" lon="6.05431">
        <ele>1110.9406738</ele>
        <time>2013-09-26T12:50:22Z</time>
      </trkpt>
      <trkpt lat="44.58029" lon="6.05431">
        <ele>1110.9406738</ele>
        <time>2013-09-26T12:50:23Z</time>
      </trkpt>
      <trkpt lat="44.57992" lon="6.05486">
        <ele>1109.0180664</ele>
        <time>2013-09-26T12:50:34Z</time>
      </trkpt>
      <trkpt lat="44.57992" lon="6.05486">
        <ele>1107.5761719</ele>
        <time>2013-09-26T12:50:43Z</time>
      </trkpt>
      <trkpt lat="44.57992" lon="6.05486">
        <ele>1106.1340332</ele>
        <time>2013-09-26T12:50:51Z</time>
      </trkpt>
      <trkpt lat="44.57992" lon="6.05486">
        <ele>1104.6921387</ele>
        <time>2013-09-26T12:51:09Z</time>
      </trkpt>
      <trkpt lat="44.57992" lon="6.05486">
        <ele>1105.6535645</ele>
        <time>2013-09-26T12:51:14Z</time>
      </trkpt>
      <trkpt lat="44.57992" lon="6.05486">
        <ele>1104.6921387</ele>
        <time>2013-09-26T12:51:16Z</time>
      </trkpt>
      <trkpt lat="44.57943" lon="6.0553">
        <ele>1103.2502441</ele>
        <time>2013-09-26T12:51:19Z</time>
      </trkpt>
      <trkpt lat="44.57977" lon="6.05573">
        <ele>1103.730957</ele>
        <time>2013-09-26T12:51:30Z</time>
      </trkpt>
      <trkpt lat="44.58017" lon="6.05628">
        <ele>1104.2116699</ele>
        <time>2013-09-26T12:51:42Z</time>
      </trkpt>
      <trkpt lat="44.58047" lon="6.05674">
        <ele>1103.730957</ele>
        <time>2013-09-26T12:51:53Z</time>
      </trkpt>
      <trkpt lat="44.58051" lon="6.05726">
        <ele>1103.730957</ele>
        <time>2013-09-26T12:52:05Z</time>
      </trkpt>
      <trkpt lat="44.58079" lon="6.05777">
        <ele>1103.2502441</ele>
        <time>2013-09-26T12:52:16Z</time>
      </trkpt>
      <trkpt lat="44.58106" lon="6.05819">
        <ele>1104.2116699</ele>
        <time>2013-09-26T12:52:28Z</time>
      </trkpt>
      <trkpt lat="44.58111" lon="6.05826">
        <ele>1104.2116699</ele>
        <time>2013-09-26T12:52:32Z</time>
      </trkpt>
      <trkpt lat="44.58115" lon="6.05833">
        <ele>1105.1728516</ele>
        <time>2013-09-26T12:52:41Z</time>
      </trkpt>
      <trkpt lat="44.5814" lon="6.05876">
        <ele>1107.5761719</ele>
        <time>2013-09-26T12:52:58Z</time>
      </trkpt>
      <trkpt lat="44.58158" lon="6.05898">
        <ele>1109.0180664</ele>
        <time>2013-09-26T12:53:11Z</time>
      </trkpt>
      <trkpt lat="44.58183" lon="6.05917">
        <ele>1109.4987793</ele>
        <time>2013-09-26T12:53:26Z</time>
      </trkpt>
      <trkpt lat="44.58189" lon="6.05921">
        <ele>1109.0180664</ele>
        <time>2013-09-26T12:53:27Z</time>
      </trkpt>
      <trkpt lat="44.58197" lon="6.05922">
        <ele>1109.4987793</ele>
        <time>2013-09-26T12:53:30Z</time>
      </trkpt>
      <trkpt lat="44.58203" lon="6.05922">
        <ele>1109.979248</ele>
        <time>2013-09-26T12:53:36Z</time>
      </trkpt>
      <trkpt lat="44.58205" lon="6.05923">
        <ele>1109.979248</ele>
        <time>2013-09-26T12:53:39Z</time>
      </trkpt>
      <trkpt lat="44.58214" lon="6.05923">
        <ele>1110.9406738</ele>
        <time>2013-09-26T12:53:41Z</time>
      </trkpt>
      <trkpt lat="44.58216" lon="6.05923">
        <ele>1111.4213867</ele>
        <time>2013-09-26T12:53:55Z</time>
      </trkpt>
      <trkpt lat="44.58216" lon="6.05923">
        <ele>1111.9020996</ele>
        <time>2013-09-26T12:54:21Z</time>
      </trkpt>
    </trkseg>
  </trk>
</gpx>